Observation data for Lomax on 07/18/2019      Previous  Date  Next       Current Mesonet Observations  Soil Data  Daily Summary Page  Observations in Plain Language
KLO1 180500Z 18011KT 30/16 A2998 RMK A01 T03000160  RH  043%=      5-min Rain = 0
KLO1 180501Z 17010KT 30/16 A2998 RMK A01 T03000160  RH  043%=      5-min Rain = 0
KLO1 180502Z 17009KT 30/16 A2998 RMK A01 T02990160  RH  043%=      5-min Rain = 0
KLO1 180503Z 17009KT 30/16 A2998 RMK A01 T02980160  RH  043%=      5-min Rain = 0
KLO1 180504Z 17011KT 30/16 A2998 RMK A01 T02980160  RH  043%=      5-min Rain = 0
KLO1 180505Z 17010KT 30/16 A2998 RMK A01 T02980160  RH  043%=      5-min Rain = 0
KLO1 180506Z 17010KT 30/16 A2998 RMK A01 T02980160  RH  043%=      5-min Rain = 0
KLO1 180507Z 17010KT 30/16 A2998 RMK A01 T02980160  RH  043%=      5-min Rain = 0
KLO1 180508Z 17011KT 30/16 A2998 RMK A01 T02980160  RH  043%=      5-min Rain = 0
KLO1 180509Z 17011KT 30/16 A2998 RMK A01 T02990161  RH  043%=      5-min Rain = 0
KLO1 180510Z 17010KT 30/16 A2998 RMK A01 T02980160  RH  043%=      5-min Rain = 0
KLO1 180511Z 17011KT 30/16 A2998 RMK A01 T02980160  RH  043%=      5-min Rain = 0
KLO1 180512Z 17010KT 30/16 A2998 RMK A01 T02980161  RH  043%=      5-min Rain = 0
KLO1 180513Z 17012KT 30/16 A2997 RMK A01 T02980161  RH  044%=      5-min Rain = 0
KLO1 180514Z 17010KT 30/16 A2997 RMK A01 T02980161  RH  043%=      5-min Rain = 0
KLO1 180515Z 17012KT 30/16 A2997 RMK A01 T02980161  RH  044%=      5-min Rain = 0
KLO1 180516Z 17011KT 30/16 A2997 RMK A01 T02980161  RH  044%=      5-min Rain = 0
KLO1 180517Z 17011KT 30/16 A2997 RMK A01 T02980161  RH  044%=      5-min Rain = 0
KLO1 180518Z 17011KT 30/16 A2997 RMK A01 T02980161  RH  044%=      5-min Rain = 0
KLO1 180519Z 17012KT 30/16 A2997 RMK A01 T02980161  RH  044%=      5-min Rain = 0
KLO1 180520Z 17011KT 30/16 A2997 RMK A01 T02970161  RH  044%=      5-min Rain = 0
KLO1 180521Z 16011KT 30/16 A2997 RMK A01 T02970161  RH  044%=      5-min Rain = 0
KLO1 180522Z 16011KT 30/16 A2997 RMK A01 T02970161  RH  044%=      5-min Rain = 0
KLO1 180523Z 16012KT 30/16 A2997 RMK A01 T02970161  RH  044%=      5-min Rain = 0
KLO1 180524Z 16011KT 30/16 A2997 RMK A01 T02970161  RH  044%=      5-min Rain = 0
KLO1 180525Z 17011KT 30/16 A2997 RMK A01 T02970161  RH  044%=      5-min Rain = 0
KLO1 180526Z 17011KT 30/16 A2997 RMK A01 T02960161  RH  044%=      5-min Rain = 0
KLO1 180527Z 17011KT 30/16 A2997 RMK A01 T02960161  RH  044%=      5-min Rain = 0
KLO1 180528Z 17011KT 30/16 A2997 RMK A01 T02960161  RH  044%=      5-min Rain = 0
KLO1 180529Z 17010KT 30/16 A2997 RMK A01 T02960161  RH  044%=      5-min Rain = 0
KLO1 180530Z 17010KT 30/16 A2997 RMK A01 T02960162  RH  044%=      5-min Rain = 0
KLO1 180531Z 17010KT 30/16 A2997 RMK A01 T02960162  RH  044%=      5-min Rain = 0
KLO1 180532Z 17009KT 30/16 A2997 RMK A01 T02950161  RH  044%=      5-min Rain = 0
KLO1 180533Z 17010KT 29/16 A2997 RMK A01 T02940161  RH  045%=      5-min Rain = 0
KLO1 180534Z 17009KT 29/16 A2997 RMK A01 T02940161  RH  045%=      5-min Rain = 0
KLO1 180535Z 17009KT 29/16 A2997 RMK A01 T02940161  RH  045%=      5-min Rain = 0
KLO1 180536Z 17010KT 29/16 A2997 RMK A01 T02930161  RH  045%=      5-min Rain = 0
KLO1 180537Z 16010KT 29/16 A2997 RMK A01 T02930161  RH  045%=      5-min Rain = 0
KLO1 180538Z 17010KT 29/16 A2997 RMK A01 T02930162  RH  045%=      5-min Rain = 0
KLO1 180539Z 17008KT 29/16 A2997 RMK A01 T02930162  RH  045%=      5-min Rain = 0
KLO1 180540Z 17008KT 29/16 A2997 RMK A01 T02920162  RH  045%=      5-min Rain = 0
KLO1 180541Z 17009KT 29/16 A2997 RMK A01 T02920161  RH  045%=      5-min Rain = 0
KLO1 180542Z 17009KT 29/16 A2997 RMK A01 T02920162  RH  045%=      5-min Rain = 0
KLO1 180543Z 17009KT 29/16 A2997 RMK A01 T02920162  RH  046%=      5-min Rain = 0
KLO1 180544Z 16008KT 29/16 A2997 RMK A01 T02910162  RH  046%=      5-min Rain = 0
KLO1 180545Z 17008KT 29/16 A2997 RMK A01 T02910162  RH  046%=      5-min Rain = 0
KLO1 180546Z 17008KT 29/16 A2997 RMK A01 T02900162  RH  046%=      5-min Rain = 0
KLO1 180547Z 16008KT 29/16 A2997 RMK A01 T02900162  RH  046%=      5-min Rain = 0
KLO1 180548Z 16009KT 29/16 A2997 RMK A01 T02900162  RH  046%=      5-min Rain = 0
KLO1 180549Z 16008KT 29/16 A2997 RMK A01 T02900162  RH  046%=      5-min Rain = 0
KLO1 180550Z 17007KT 29/16 A2997 RMK A01 T02900162  RH  046%=      5-min Rain = 0
KLO1 180551Z 17008KT 29/16 A2997 RMK A01 T02890162  RH  046%=      5-min Rain = 0
KLO1 180552Z 16008KT 29/16 A2997 RMK A01 T02890162  RH  046%=      5-min Rain = 0
KLO1 180553Z 16009KT 29/16 A2997 RMK A01 T02890162  RH  046%=      5-min Rain = 0
KLO1 180554Z 16008KT 29/16 A2997 RMK A01 T02890162  RH  046%=      5-min Rain = 0
KLO1 180555Z 16008KT 29/16 A2997 RMK A01 T02880162  RH  046%=      5-min Rain = 0
KLO1 180556Z 16008KT 29/16 A2997 RMK A01 T02880162  RH  046%=      5-min Rain = 0
KLO1 180557Z 15010KT 29/16 A2997 RMK A01 T02870162  RH  047%=      5-min Rain = 0
KLO1 180558Z 16010KT 29/16 A2997 RMK A01 T02870162  RH  047%=      5-min Rain = 0
KLO1 180559Z 16010KT 29/16 A2997 RMK A01 T02870162  RH  047%=      5-min Rain = 0
KLO1 180600Z 15009KT 29/16 A2997 RMK A01 T02870163  RH  047%=      5-min Rain = 0
KLO1 180601Z 16010KT 29/16 A2997 RMK A01 T02870162  RH  047%=      5-min Rain = 0
KLO1 180602Z 16009KT 29/16 A2997 RMK A01 T02870162  RH  047%=      5-min Rain = 0
KLO1 180603Z 16009KT 29/16 A2997 RMK A01 T02870162  RH  047%=      5-min Rain = 0
KLO1 180604Z 16009KT 29/16 A2997 RMK A01 T02860162  RH  047%=      5-min Rain = 0
KLO1 180605Z 16009KT 29/16 A2997 RMK A01 T02860162  RH  047%=      5-min Rain = 0
KLO1 180606Z 16010KT 29/16 A2997 RMK A01 T02860162  RH  047%=      5-min Rain = 0
KLO1 180607Z 16010KT 29/16 A2997 RMK A01 T02870162  RH  047%=      5-min Rain = 0
KLO1 180608Z 16010KT 29/16 A2997 RMK A01 T02870162  RH  047%=      5-min Rain = 0
KLO1 180609Z 16011KT 29/16 A2997 RMK A01 T02870162  RH  046%=      5-min Rain = 0
KLO1 180610Z 16011KT 29/16 A2997 RMK A01 T02880161  RH  046%=      5-min Rain = 0
KLO1 180611Z 16009KT 29/16 A2997 RMK A01 T02880162  RH  046%=      5-min Rain = 0
KLO1 180612Z 16009KT 29/16 A2997 RMK A01 T02880161  RH  046%=      5-min Rain = 0
KLO1 180613Z 16009KT 29/16 A2997 RMK A01 T02880162  RH  046%=      5-min Rain = 0
KLO1 180614Z 16009KT 29/16 A2997 RMK A01 T02880161  RH  046%=      5-min Rain = 0
KLO1 180615Z 16008KT 29/16 A2997 RMK A01 T02880161  RH  046%=      5-min Rain = 0
KLO1 180616Z 16007KT 29/16 A2997 RMK A01 T02880161  RH  046%=      5-min Rain = 0
KLO1 180617Z 16008KT 29/16 A2997 RMK A01 T02870161  RH  046%=      5-min Rain = 0
KLO1 180618Z 16008KT 29/16 A2997 RMK A01 T02870161  RH  046%=      5-min Rain = 0
KLO1 180619Z 16008KT 29/16 A2997 RMK A01 T02870161  RH  046%=      5-min Rain = 0
KLO1 180620Z 16007KT 29/16 A2997 RMK A01 T02870161  RH  046%=      5-min Rain = 0
KLO1 180621Z 15007KT 29/16 A2997 RMK A01 T02870161  RH  046%=      5-min Rain = 0
KLO1 180622Z 15008KT 29/16 A2997 RMK A01 T02870161  RH  046%=      5-min Rain = 0
KLO1 180623Z 16008KT 29/16 A2997 RMK A01 T02870161  RH  046%=      5-min Rain = 0
KLO1 180624Z 16008KT 29/16 A2997 RMK A01 T02860161  RH  046%=      5-min Rain = 0
KLO1 180625Z 16007KT 29/16 A2998 RMK A01 T02860161  RH  047%=      5-min Rain = 0
KLO1 180626Z 15008KT 29/16 A2998 RMK A01 T02860161  RH  047%=      5-min Rain = 0
KLO1 180627Z 15008KT 29/16 A2998 RMK A01 T02860161  RH  047%=      5-min Rain = 0
KLO1 180628Z 15006KT 29/16 A2998 RMK A01 T02860161  RH  047%=      5-min Rain = 0
KLO1 180629Z 15007KT 29/16 A2998 RMK A01 T02850161  RH  047%=      5-min Rain = 0
KLO1 180630Z 15007KT 29/16 A2998 RMK A01 T02850161  RH  047%=      5-min Rain = 0
KLO1 180631Z 15009KT 29/16 A2998 RMK A01 T02850160  RH  047%=      5-min Rain = 0
KLO1 180632Z 15008KT 29/16 A2998 RMK A01 T02850160  RH  047%=      5-min Rain = 0
KLO1 180633Z 15008KT 29/16 A2998 RMK A01 T02850160  RH  047%=      5-min Rain = 0
KLO1 180634Z 15008KT 29/16 A2998 RMK A01 T02850160  RH  047%=      5-min Rain = 0
KLO1 180635Z 14008KT 29/16 A2998 RMK A01 T02850160  RH  047%=      5-min Rain = 0
KLO1 180636Z 14007KT 29/16 A2998 RMK A01 T02850161  RH  047%=      5-min Rain = 0
KLO1 180637Z 14007KT 28/16 A2998 RMK A01 T02830161  RH  047%=      5-min Rain = 0
KLO1 180638Z 14006KT 28/16 A2998 RMK A01 T02820161  RH  048%=      5-min Rain = 0
KLO1 180639Z 13006KT 28/16 A2998 RMK A01 T02800161  RH  048%=      5-min Rain = 0
KLO1 180640Z 13006KT 28/16 A2998 RMK A01 T02800162  RH  049%=      5-min Rain = 0
KLO1 180641Z 13006KT 28/16 A2998 RMK A01 T02790162  RH  049%=      5-min Rain = 0
KLO1 180642Z 14006KT 28/16 A2998 RMK A01 T02780162  RH  049%=      5-min Rain = 0
KLO1 180643Z 13007KT 28/16 A2998 RMK A01 T02780162  RH  049%=      5-min Rain = 0
KLO1 180644Z 13006KT 28/16 A2998 RMK A01 T02770162  RH  049%=      5-min Rain = 0
KLO1 180645Z 13006KT 28/16 A2998 RMK A01 T02770161  RH  049%=      5-min Rain = 0
KLO1 180646Z 13007KT 28/16 A2998 RMK A01 T02760161  RH  050%=      5-min Rain = 0
KLO1 180647Z 13007KT 28/16 A2998 RMK A01 T02760162  RH  050%=      5-min Rain = 0
KLO1 180648Z 13007KT 28/16 A2998 RMK A01 T02750162  RH  050%=      5-min Rain = 0
KLO1 180649Z 14008KT 27/16 A2998 RMK A01 T02740161  RH  050%=      5-min Rain = 0
KLO1 180650Z 14008KT 27/16 A2998 RMK A01 T02740161  RH  050%=      5-min Rain = 0
KLO1 180651Z 14009KT 27/16 A2998 RMK A01 T02740161  RH  050%=      5-min Rain = 0
KLO1 180652Z 14008KT 27/16 A2998 RMK A01 T02740161  RH  050%=      5-min Rain = 0
KLO1 180653Z 13009KT 27/16 A2998 RMK A01 T02730161  RH  050%=      5-min Rain = 0
KLO1 180654Z 14009KT 27/16 A2998 RMK A01 T02730161  RH  051%=      5-min Rain = 0
KLO1 180655Z 13009KT 27/16 A2998 RMK A01 T02720161  RH  051%=      5-min Rain = 0
KLO1 180656Z 14009KT 27/16 A2998 RMK A01 T02710161  RH  051%=      5-min Rain = 0
KLO1 180657Z 14009KT 27/16 A2998 RMK A01 T02710161  RH  051%=      5-min Rain = 0
KLO1 180658Z 14010KT 27/16 A2998 RMK A01 T02710161  RH  051%=      5-min Rain = 0
KLO1 180659Z 13010KT 27/16 A2998 RMK A01 T02700161  RH  051%=      5-min Rain = 0
KLO1 180700Z 14009KT 27/16 A2998 RMK A01 T02700161  RH  051%=      5-min Rain = 0
KLO1 180701Z 14009KT 27/16 A2998 RMK A01 T02690161  RH  051%=      5-min Rain = 0
KLO1 180702Z 14009KT 27/16 A2998 RMK A01 T02690161  RH  051%=      5-min Rain = 0
KLO1 180703Z 14010KT 27/16 A2998 RMK A01 T02680160  RH  051%=      5-min Rain = 0
KLO1 180704Z 14011KT 27/16 A2998 RMK A01 T02690160  RH  051%=      5-min Rain = 0
KLO1 180705Z 15012KT 27/16 A2997 RMK A01 T02690160  RH  051%=      5-min Rain = 0
KLO1 180706Z 14010KT 27/16 A2997 RMK A01 T02710161  RH  051%=      5-min Rain = 0
KLO1 180707Z 15013KT 27/16 A2997 RMK A01 T02710161  RH  051%=      5-min Rain = 0
KLO1 180708Z 15011KT 27/16 A2997 RMK A01 T02720160  RH  051%=      5-min Rain = 0
KLO1 180709Z 16011KT 27/16 A2997 RMK A01 T02720160  RH  050%=      5-min Rain = 0
KLO1 180710Z 15012KT 27/16 A2997 RMK A01 T02730160  RH  050%=      5-min Rain = 0
KLO1 180711Z 14010KT 27/16 A2997 RMK A01 T02730160  RH  050%=      5-min Rain = 0
KLO1 180712Z 15009KT 27/16 A2997 RMK A01 T02730160  RH  050%=      5-min Rain = 0
KLO1 180713Z 15009KT 27/16 A2997 RMK A01 T02730160  RH  050%=      5-min Rain = 0
KLO1 180714Z 15009KT 27/16 A2997 RMK A01 T02720160  RH  050%=      5-min Rain = 0
KLO1 180715Z 15009KT 27/16 A2997 RMK A01 T02720160  RH  050%=      5-min Rain = 0
KLO1 180716Z 15011KT 27/16 A2997 RMK A01 T02710160  RH  051%=      5-min Rain = 0
KLO1 180717Z 14011KT 27/16 A2997 RMK A01 T02710160  RH  051%=      5-min Rain = 0
KLO1 180718Z 15010KT 27/16 A2997 RMK A01 T02710160  RH  051%=      5-min Rain = 0
KLO1 180719Z 15013KT 27/16 A2997 RMK A01 T02710160  RH  051%=      5-min Rain = 0
KLO1 180720Z 15012KT 27/16 A2997 RMK A01 T02720160  RH  051%=      5-min Rain = 0
KLO1 180721Z 15011KT 27/16 A2997 RMK A01 T02720160  RH  050%=      5-min Rain = 0
KLO1 180722Z 15012KT 27/16 A2997 RMK A01 T02730160  RH  050%=      5-min Rain = 0
KLO1 180723Z 15012G18KT 27/16 A2997 RMK A01 T02730161  RH  050%=      5-min Rain = 0
KLO1 180724Z 15016KT 28/16 A2997 RMK A01 T02750161  RH  050%=      5-min Rain = 0
KLO1 180725Z 15014KT 28/16 A2997 RMK A01 T02760163  RH  050%=      5-min Rain = 0
KLO1 180726Z 16014KT 28/16 A2997 RMK A01 T02770163  RH  050%=      5-min Rain = 0
KLO1 180727Z 15014KT 28/16 A2997 RMK A01 T02780163  RH  050%=      5-min Rain = 0
KLO1 180728Z 15016KT 28/16 A2997 RMK A01 T02780164  RH  050%=      5-min Rain = 0
KLO1 180729Z 16015KT 28/17 A2997 RMK A01 T02780165  RH  050%=      5-min Rain = 0
KLO1 180730Z 16017KT 28/17 A2997 RMK A01 T02790166  RH  050%=      5-min Rain = 0
KLO1 180731Z 16016KT 28/17 A2997 RMK A01 T02790166  RH  050%=      5-min Rain = 0
KLO1 180732Z 16014KT 28/17 A2998 RMK A01 T02790167  RH  050%=      5-min Rain = 0
KLO1 180733Z 16016KT 28/17 A2997 RMK A01 T02790167  RH  051%=      5-min Rain = 0
KLO1 180734Z 16016KT 28/17 A2998 RMK A01 T02790168  RH  051%=      5-min Rain = 0
KLO1 180735Z 16013KT 28/17 A2998 RMK A01 T02790168  RH  051%=      5-min Rain = 0
KLO1 180736Z 16015KT 28/17 A2998 RMK A01 T02790168  RH  051%=      5-min Rain = 0
KLO1 180737Z 16015KT 28/17 A2997 RMK A01 T02790168  RH  051%=      5-min Rain = 0
KLO1 180738Z 16015KT 28/17 A2997 RMK A01 T02780169  RH  051%=      5-min Rain = 0
KLO1 180739Z 16016KT 28/17 A2997 RMK A01 T02780169  RH  051%=      5-min Rain = 0
KLO1 180740Z 16014KT 28/17 A2997 RMK A01 T02780169  RH  052%=      5-min Rain = 0
KLO1 180741Z 16016KT 28/17 A2997 RMK A01 T02780170  RH  052%=      5-min Rain = 0
KLO1 180742Z 16016KT 28/17 A2997 RMK A01 T02780170  RH  052%=      5-min Rain = 0
KLO1 180743Z 16015KT 28/17 A2997 RMK A01 T02780170  RH  052%=      5-min Rain = 0
KLO1 180744Z 16015KT 28/17 A2997 RMK A01 T02770170  RH  052%=      5-min Rain = 0
KLO1 180745Z 16014KT 28/17 A2997 RMK A01 T02770170  RH  052%=      5-min Rain = 0
KLO1 180746Z 16012KT 28/17 A2997 RMK A01 T02770170  RH  052%=      5-min Rain = 0
KLO1 180747Z 16014KT 28/17 A2997 RMK A01 T02760170  RH  052%=      5-min Rain = 0
KLO1 180748Z 16014KT 28/17 A2997 RMK A01 T02760170  RH  052%=      5-min Rain = 0
KLO1 180749Z 16017KT 28/17 A2997 RMK A01 T02760171  RH  053%=      5-min Rain = 0
KLO1 180750Z 16016KT 28/17 A2997 RMK A01 T02760171  RH  053%=      5-min Rain = 0
KLO1 180751Z 16017KT 28/17 A2997 RMK A01 T02760171  RH  053%=      5-min Rain = 0
KLO1 180752Z 16015KT 28/17 A2997 RMK A01 T02760171  RH  053%=      5-min Rain = 0
KLO1 180753Z 16015KT 28/17 A2997 RMK A01 T02760171  RH  053%=      5-min Rain = 0
KLO1 180754Z 16015KT 28/17 A2997 RMK A01 T02760172  RH  053%=      5-min Rain = 0
KLO1 180755Z 15017KT 28/17 A2997 RMK A01 T02760172  RH  053%=      5-min Rain = 0
KLO1 180756Z 16015KT 28/17 A2997 RMK A01 T02760172  RH  053%=      5-min Rain = 0
KLO1 180757Z 16014KT 28/17 A2997 RMK A01 T02760172  RH  053%=      5-min Rain = 0
KLO1 180758Z 16014KT 28/17 A2997 RMK A01 T02750172  RH  053%=      5-min Rain = 0
KLO1 180759Z 16014G19KT 28/17 A2997 RMK A01 T02750172  RH  053%=      5-min Rain = 0
KLO1 180800Z 16016KT 27/17 A2997 RMK A01 T02740172  RH  054%=      5-min Rain = 0
KLO1 180801Z 16015KT 27/17 A2997 RMK A01 T02740173  RH  054%=      5-min Rain = 0
KLO1 180802Z 16016KT 28/17 A2997 RMK A01 T02750173  RH  054%=      5-min Rain = 0
KLO1 180803Z 16013KT 28/17 A2997 RMK A01 T02750173  RH  054%=      5-min Rain = 0
KLO1 180804Z 16016KT 28/17 A2997 RMK A01 T02750173  RH  054%=      5-min Rain = 0
KLO1 180805Z 16018KT 27/17 A2997 RMK A01 T02740173  RH  054%=      5-min Rain = 0
KLO1 180806Z 16017KT 28/17 A2997 RMK A01 T02750173  RH  054%=      5-min Rain = 0
KLO1 180807Z 16018KT 28/17 A2997 RMK A01 T02750173  RH  054%=      5-min Rain = 0
KLO1 180808Z 16015KT 28/17 A2997 RMK A01 T02750174  RH  054%=      5-min Rain = 0
KLO1 180809Z 16016KT 28/17 A2997 RMK A01 T02750174  RH  054%=      5-min Rain = 0
KLO1 180810Z 16014KT 27/17 A2997 RMK A01 T02740174  RH  054%=      5-min Rain = 0
KLO1 180811Z 16016KT 27/17 A2997 RMK A01 T02730174  RH  054%=      5-min Rain = 0
KLO1 180812Z 16014KT 27/17 A2997 RMK A01 T02730174  RH  055%=      5-min Rain = 0
KLO1 180813Z 16014KT 27/17 A2997 RMK A01 T02730174  RH  055%=      5-min Rain = 0
KLO1 180814Z 16014KT 27/17 A2997 RMK A01 T02730174  RH  055%=      5-min Rain = 0
KLO1 180815Z 16016KT 27/18 A2997 RMK A01 T02730175  RH  055%=      5-min Rain = 0
KLO1 180816Z 16015KT 27/18 A2997 RMK A01 T02730175  RH  055%=      5-min Rain = 0
KLO1 180817Z 16015KT 27/18 A2997 RMK A01 T02730175  RH  055%=      5-min Rain = 0
KLO1 180818Z 16016KT 27/18 A2997 RMK A01 T02730175  RH  055%=      5-min Rain = 0
KLO1 180819Z 16017KT 27/18 A2997 RMK A01 T02730175  RH  055%=      5-min Rain = 0
KLO1 180820Z 16015KT 27/18 A2997 RMK A01 T02730176  RH  055%=      5-min Rain = 0
KLO1 180821Z 16014KT 27/18 A2997 RMK A01 T02720175  RH  055%=      5-min Rain = 0
KLO1 180822Z 16013KT 27/18 A2997 RMK A01 T02720175  RH  055%=      5-min Rain = 0
KLO1 180823Z 16014KT 27/18 A2997 RMK A01 T02720175  RH  056%=      5-min Rain = 0
KLO1 180824Z 16015KT 27/18 A2997 RMK A01 T02720175  RH  056%=      5-min Rain = 0
KLO1 180825Z 16017KT 27/18 A2997 RMK A01 T02710175  RH  056%=      5-min Rain = 0
KLO1 180826Z 16016KT 27/18 A2997 RMK A01 T02710175  RH  056%=      5-min Rain = 0
KLO1 180827Z 16014KT 27/18 A2997 RMK A01 T02720176  RH  056%=      5-min Rain = 0
KLO1 180828Z 16013KT 27/18 A2997 RMK A01 T02720176  RH  056%=      5-min Rain = 0
KLO1 180829Z 16014KT 27/18 A2997 RMK A01 T02720176  RH  056%=      5-min Rain = 0
KLO1 180830Z 16016KT 27/18 A2997 RMK A01 T02710176  RH  056%=      5-min Rain = 0
KLO1 180831Z 16014KT 27/18 A2997 RMK A01 T02710176  RH  056%=      5-min Rain = 0
KLO1 180832Z 16014KT 27/18 A2997 RMK A01 T02710176  RH  056%=      5-min Rain = 0
KLO1 180833Z 16015KT 27/18 A2997 RMK A01 T02710176  RH  056%=      5-min Rain = 0
KLO1 180834Z 16013KT 27/18 A2997 RMK A01 T02710176  RH  056%=      5-min Rain = 0
KLO1 180835Z 16012KT 27/18 A2997 RMK A01 T02710176  RH  056%=      5-min Rain = 0
KLO1 180836Z 16014KT 27/18 A2997 RMK A01 T02700176  RH  056%=      5-min Rain = 0
KLO1 180837Z 17013KT 27/18 A2998 RMK A01 T02700176  RH  056%=      5-min Rain = 0
KLO1 180838Z 16014KT 27/18 A2998 RMK A01 T02700177  RH  056%=      5-min Rain = 0
KLO1 180839Z 16014KT 27/18 A2998 RMK A01 T02700177  RH  056%=      5-min Rain = 0
KLO1 180840Z 16013KT 27/18 A2998 RMK A01 T02700177  RH  057%=      5-min Rain = 0
KLO1 180841Z 16013KT 27/18 A2998 RMK A01 T02700177  RH  057%=      5-min Rain = 0
KLO1 180842Z 17012KT 27/18 A2998 RMK A01 T02700177  RH  057%=      5-min Rain = 0
KLO1 180843Z 17013KT 27/18 A2998 RMK A01 T02700177  RH  057%=      5-min Rain = 0
KLO1 180844Z 16012KT 27/18 A2998 RMK A01 T02690177  RH  057%=      5-min Rain = 0
KLO1 180845Z 17011KT 27/18 A2998 RMK A01 T02690177  RH  057%=      5-min Rain = 0
KLO1 180846Z 16013KT 27/18 A2998 RMK A01 T02690177  RH  057%=      5-min Rain = 0
KLO1 180847Z 17013KT 27/18 A2998 RMK A01 T02690177  RH  057%=      5-min Rain = 0
KLO1 180848Z 17012KT 27/18 A2998 RMK A01 T02690177  RH  057%=      5-min Rain = 0
KLO1 180849Z 17013KT 27/18 A2998 RMK A01 T02690177  RH  057%=      5-min Rain = 0
KLO1 180850Z 17011KT 27/18 A2998 RMK A01 T02690177  RH  057%=      5-min Rain = 0
KLO1 180851Z 17011KT 27/18 A2998 RMK A01 T02680177  RH  057%=      5-min Rain = 0
KLO1 180852Z 17013KT 27/18 A2998 RMK A01 T02680178  RH  058%=      5-min Rain = 0
KLO1 180853Z 17013KT 27/18 A2998 RMK A01 T02680178  RH  058%=      5-min Rain = 0
KLO1 180854Z 16011KT 27/18 A2998 RMK A01 T02680178  RH  058%=      5-min Rain = 0
KLO1 180855Z 17012KT 27/18 A2998 RMK A01 T02680178  RH  058%=      5-min Rain = 0
KLO1 180856Z 17013KT 27/18 A2998 RMK A01 T02690178  RH  058%=      5-min Rain = 0
KLO1 180857Z 17013KT 27/18 A2998 RMK A01 T02680179  RH  058%=      5-min Rain = 0
KLO1 180858Z 17014KT 27/18 A2998 RMK A01 T02680178  RH  058%=      5-min Rain = 0
KLO1 180859Z 16013KT 27/18 A2998 RMK A01 T02690179  RH  058%=      5-min Rain = 0
KLO1 180900Z 17013KT 27/18 A2998 RMK A01 T02690179  RH  058%=      5-min Rain = 0
KLO1 180901Z 17013KT 27/18 A2998 RMK A01 T02680179  RH  058%=      5-min Rain = 0
KLO1 180902Z 17013KT 27/18 A2998 RMK A01 T02680179  RH  058%=      5-min Rain = 0
KLO1 180903Z 17014KT 27/18 A2998 RMK A01 T02690180  RH  058%=      5-min Rain = 0
KLO1 180904Z 17011KT 27/18 A2998 RMK A01 T02680180  RH  058%=      5-min Rain = 0
KLO1 180905Z 17012KT 27/18 A2998 RMK A01 T02680180  RH  058%=      5-min Rain = 0
KLO1 180906Z 17012KT 27/18 A2998 RMK A01 T02680180  RH  058%=      5-min Rain = 0
KLO1 180907Z 17013KT 27/18 A2998 RMK A01 T02680180  RH  059%=      5-min Rain = 0
KLO1 180908Z 17013KT 27/18 A2998 RMK A01 T02680180  RH  059%=      5-min Rain = 0
KLO1 180909Z 17013KT 27/18 A2998 RMK A01 T02670180  RH  059%=      5-min Rain = 0
KLO1 180910Z 17013KT 27/18 A2998 RMK A01 T02670181  RH  059%=      5-min Rain = 0
KLO1 180911Z 17012KT 27/18 A2998 RMK A01 T02670181  RH  059%=      5-min Rain = 0
KLO1 180912Z 17012KT 27/18 A2998 RMK A01 T02680181  RH  059%=      5-min Rain = 0
KLO1 180913Z 17012KT 27/18 A2998 RMK A01 T02670181  RH  059%=      5-min Rain = 0
KLO1 180914Z 17011KT 27/18 A2998 RMK A01 T02670182  RH  059%=      5-min Rain = 0
KLO1 180915Z 17012KT 27/18 A2998 RMK A01 T02670182  RH  059%=      5-min Rain = 0
KLO1 180916Z 17013KT 27/18 A2998 RMK A01 T02670182  RH  060%=      5-min Rain = 0
KLO1 180917Z 16012KT 27/18 A2998 RMK A01 T02670182  RH  060%=      5-min Rain = 0
KLO1 180918Z 17012KT 27/18 A2998 RMK A01 T02670182  RH  060%=      5-min Rain = 0
KLO1 180919Z 17011KT 27/18 A2998 RMK A01 T02670182  RH  060%=      5-min Rain = 0
KLO1 180920Z 16012KT 27/18 A2998 RMK A01 T02670183  RH  060%=      5-min Rain = 0
KLO1 180921Z 17012KT 27/18 A2998 RMK A01 T02670183  RH  060%=      5-min Rain = 0
KLO1 180922Z 17013KT 27/18 A2998 RMK A01 T02670183  RH  060%=      5-min Rain = 0
KLO1 180923Z 17014KT 27/18 A2998 RMK A01 T02670183  RH  060%=      5-min Rain = 0
KLO1 180924Z 17012KT 27/18 A2998 RMK A01 T02670183  RH  060%=      5-min Rain = 0
KLO1 180925Z 17013KT 27/18 A2998 RMK A01 T02670184  RH  060%=      5-min Rain = 0
KLO1 180926Z 17014KT 27/18 A2998 RMK A01 T02670184  RH  060%=      5-min Rain = 0
KLO1 180927Z 17015KT 27/18 A2998 RMK A01 T02670184  RH  060%=      5-min Rain = 0
KLO1 180928Z 17013KT 27/18 A2998 RMK A01 T02670184  RH  060%=      5-min Rain = 0
KLO1 180929Z 17014KT 27/18 A2998 RMK A01 T02670184  RH  060%=      5-min Rain = 0
KLO1 180930Z 18015KT 27/18 A2998 RMK A01 T02670184  RH  060%=      5-min Rain = 0
KLO1 180931Z 18011KT 27/19 A2998 RMK A01 T02670185  RH  060%=      5-min Rain = 0
KLO1 180932Z 17013KT 27/18 A2998 RMK A01 T02670184  RH  060%=      5-min Rain = 0
KLO1 180933Z 17013KT 27/18 A2998 RMK A01 T02670184  RH  061%=      5-min Rain = 0
KLO1 180934Z 17012KT 27/18 A2998 RMK A01 T02670184  RH  061%=      5-min Rain = 0
KLO1 180935Z 17014KT 27/18 A2998 RMK A01 T02670184  RH  061%=      5-min Rain = 0
KLO1 180936Z 17014KT 27/18 A2998 RMK A01 T02660184  RH  061%=      5-min Rain = 0
KLO1 180937Z 18014KT 27/18 A2998 RMK A01 T02660184  RH  061%=      5-min Rain = 0
KLO1 180938Z 18013KT 27/18 A2998 RMK A01 T02660184  RH  061%=      5-min Rain = 0
KLO1 180939Z 17013G18KT 27/19 A2999 RMK A01 T02660185  RH  061%=      5-min Rain = 0
KLO1 180940Z 18014KT 27/19 A2999 RMK A01 T02660185  RH  061%=      5-min Rain = 0
KLO1 180941Z 18013KT 27/19 A2999 RMK A01 T02660185  RH  061%=      5-min Rain = 0
KLO1 180942Z 18013KT 27/19 A2999 RMK A01 T02660185  RH  061%=      5-min Rain = 0
KLO1 180943Z 18012KT 27/19 A2999 RMK A01 T02660185  RH  061%=      5-min Rain = 0
KLO1 180944Z 17015KT 27/19 A2999 RMK A01 T02650185  RH  061%=      5-min Rain = 0
KLO1 180945Z 18014KT 27/19 A2999 RMK A01 T02650185  RH  061%=      5-min Rain = 0
KLO1 180946Z 18013KT 27/19 A2999 RMK A01 T02650185  RH  061%=      5-min Rain = 0
KLO1 180947Z 18012KT 27/19 A2999 RMK A01 T02650185  RH  061%=      5-min Rain = 0
KLO1 180948Z 17015KT 27/19 A2999 RMK A01 T02650185  RH  061%=      5-min Rain = 0
KLO1 180949Z 18013KT 27/19 A2999 RMK A01 T02650185  RH  061%=      5-min Rain = 0
KLO1 180950Z 18012KT 27/19 A2999 RMK A01 T02660185  RH  061%=      5-min Rain = 0
KLO1 180951Z 18012KT 27/19 A2999 RMK A01 T02650185  RH  061%=      5-min Rain = 0
KLO1 180952Z 18011KT 27/19 A2999 RMK A01 T02650185  RH  062%=      5-min Rain = 0
KLO1 180953Z 18012KT 27/19 A2999 RMK A01 T02650185  RH  062%=      5-min Rain = 0
KLO1 180954Z 18013KT 27/19 A2999 RMK A01 T02650185  RH  062%=      5-min Rain = 0
KLO1 180955Z 18012KT 26/19 A2999 RMK A01 T02640185  RH  062%=      5-min Rain = 0
KLO1 180956Z 18010KT 26/19 A2999 RMK A01 T02640185  RH  062%=      5-min Rain = 0
KLO1 180957Z 18015KT 26/19 A2999 RMK A01 T02640186  RH  062%=      5-min Rain = 0
KLO1 180958Z 18011KT 26/19 A2999 RMK A01 T02630185  RH  062%=      5-min Rain = 0
KLO1 180959Z 18011KT 26/19 A2999 RMK A01 T02640185  RH  062%=      5-min Rain = 0
KLO1 181000Z 18012KT 26/19 A2999 RMK A01 T02630185  RH  062%=      5-min Rain = 0
KLO1 181001Z 18014KT 26/19 A2999 RMK A01 T02630185  RH  062%=      5-min Rain = 0
KLO1 181002Z 18014KT 26/19 A2999 RMK A01 T02630185  RH  062%=      5-min Rain = 0
KLO1 181003Z 17014KT 26/19 A2999 RMK A01 T02640186  RH  062%=      5-min Rain = 0
KLO1 181004Z 17013KT 26/19 A2999 RMK A01 T02640185  RH  062%=      5-min Rain = 0
KLO1 181005Z 18012KT 26/19 A30 RMK A01 T02640185  RH  062%=      5-min Rain = 0
KLO1 181006Z 18011KT 26/19 A30 RMK A01 T02640186  RH  062%=      5-min Rain = 0
KLO1 181007Z 17013KT 26/19 A30 RMK A01 T02640186  RH  062%=      5-min Rain = 0
KLO1 181008Z 18014KT 26/19 A30 RMK A01 T02640186  RH  062%=      5-min Rain = 0
KLO1 181009Z 18013KT 26/19 A30 RMK A01 T02640186  RH  062%=      5-min Rain = 0
KLO1 181010Z 18012KT 26/19 A30 RMK A01 T02640186  RH  062%=      5-min Rain = 0
KLO1 181011Z 18013KT 26/19 A30 RMK A01 T02640186  RH  062%=      5-min Rain = 0
KLO1 181012Z 18011KT 26/19 A30 RMK A01 T02640186  RH  062%=      5-min Rain = 0
KLO1 181013Z 18012KT 26/19 A30 RMK A01 T02640186  RH  062%=      5-min Rain = 0
KLO1 181014Z 18013KT 26/19 A30 RMK A01 T02640186  RH  062%=      5-min Rain = 0
KLO1 181015Z 18013KT 26/19 A2999 RMK A01 T02640186  RH  062%=      5-min Rain = 0
KLO1 181016Z 17013KT 26/19 A2999 RMK A01 T02630186  RH  062%=      5-min Rain = 0
KLO1 181017Z 18012KT 26/19 A2999 RMK A01 T02640186  RH  062%=      5-min Rain = 0
KLO1 181018Z 17012KT 26/19 A30 RMK A01 T02640186  RH  062%=      5-min Rain = 0
KLO1 181019Z 17012KT 26/19 A2999 RMK A01 T02640186  RH  062%=      5-min Rain = 0
KLO1 181020Z 18012KT 26/19 A30 RMK A01 T02640186  RH  062%=      5-min Rain = 0
KLO1 181021Z 18013KT 26/19 A30 RMK A01 T02640187  RH  062%=      5-min Rain = 0
KLO1 181022Z 18012KT 26/19 A30 RMK A01 T02640187  RH  062%=      5-min Rain = 0
KLO1 181023Z 17011KT 26/19 A30 RMK A01 T02640187  RH  062%=      5-min Rain = 0
KLO1 181024Z 18012KT 26/19 A30 RMK A01 T02640187  RH  063%=      5-min Rain = 0
KLO1 181025Z 17013KT 26/19 A30 RMK A01 T02640187  RH  063%=      5-min Rain = 0
KLO1 181026Z 18012KT 26/19 A30 RMK A01 T02630187  RH  063%=      5-min Rain = 0
KLO1 181027Z 17010KT 26/19 A30 RMK A01 T02630187  RH  063%=      5-min Rain = 0
KLO1 181028Z 17012KT 26/19 A30 RMK A01 T02630187  RH  063%=      5-min Rain = 0
KLO1 181029Z 18012KT 26/19 A30 RMK A01 T02640187  RH  063%=      5-min Rain = 0
KLO1 181030Z 18011KT 26/19 A30 RMK A01 T02630187  RH  063%=      5-min Rain = 0
KLO1 181031Z 17010KT 26/19 A30 RMK A01 T02630187  RH  063%=      5-min Rain = 0
KLO1 181032Z 18012KT 26/19 A30 RMK A01 T02630187  RH  063%=      5-min Rain = 0
KLO1 181033Z 17011KT 26/19 A30 RMK A01 T02630187  RH  063%=      5-min Rain = 0
KLO1 181034Z 17011KT 26/19 A30 RMK A01 T02630187  RH  063%=      5-min Rain = 0
KLO1 181035Z 17013KT 26/19 A30 RMK A01 T02630187  RH  063%=      5-min Rain = 0
KLO1 181036Z 18014KT 26/19 A30 RMK A01 T02630187  RH  063%=      5-min Rain = 0
KLO1 181037Z 17013KT 26/19 A30 RMK A01 T02630188  RH  063%=      5-min Rain = 0
KLO1 181038Z 18013KT 26/19 A30 RMK A01 T02630187  RH  063%=      5-min Rain = 0
KLO1 181039Z 18013KT 26/19 A30 RMK A01 T02630187  RH  063%=      5-min Rain = 0
KLO1 181040Z 17011KT 26/19 A30 RMK A01 T02630188  RH  063%=      5-min Rain = 0
KLO1 181041Z 18011KT 26/19 A30 RMK A01 T02630188  RH  063%=      5-min Rain = 0
KLO1 181042Z 17011KT 26/19 A30 RMK A01 T02620188  RH  063%=      5-min Rain = 0
KLO1 181043Z 18011KT 26/19 A30 RMK A01 T02620188  RH  064%=      5-min Rain = 0
KLO1 181044Z 18011KT 26/19 A30 RMK A01 T02620188  RH  064%=      5-min Rain = 0
KLO1 181045Z 18012KT 26/19 A30 RMK A01 T02620188  RH  064%=      5-min Rain = 0
KLO1 181046Z 17011KT 26/19 A30 RMK A01 T02620188  RH  064%=      5-min Rain = 0
KLO1 181047Z 18011KT 26/19 A30 RMK A01 T02610188  RH  064%=      5-min Rain = 0
KLO1 181048Z 18011KT 26/19 A30 RMK A01 T02610188  RH  064%=      5-min Rain = 0
KLO1 181049Z 17011KT 26/19 A30 RMK A01 T02610188  RH  064%=      5-min Rain = 0
KLO1 181050Z 17011KT 26/19 A30 RMK A01 T02610188  RH  064%=      5-min Rain = 0
KLO1 181051Z 17010KT 26/19 A30 RMK A01 T02610188  RH  064%=      5-min Rain = 0
KLO1 181052Z 17010KT 26/19 A30 RMK A01 T02610188  RH  064%=      5-min Rain = 0
KLO1 181053Z 17009KT 26/19 A30 RMK A01 T02600188  RH  064%=      5-min Rain = 0
KLO1 181054Z 17011KT 26/19 A30 RMK A01 T02600188  RH  065%=      5-min Rain = 0
KLO1 181055Z 17012KT 26/19 A30 RMK A01 T02600188  RH  065%=      5-min Rain = 0
KLO1 181056Z 17010KT 26/19 A30 RMK A01 T02600188  RH  065%=      5-min Rain = 0
KLO1 181057Z 17011KT 26/19 A30 RMK A01 T02600188  RH  065%=      5-min Rain = 0
KLO1 181058Z 17011KT 26/19 A30 RMK A01 T02600188  RH  065%=      5-min Rain = 0
KLO1 181059Z 17010KT 26/19 A30 RMK A01 T02600189  RH  065%=      5-min Rain = 0
KLO1 181100Z 18010KT 26/19 A3001 RMK A01 T02600189  RH  065%=      5-min Rain = 0
KLO1 181101Z 17011KT 26/19 A3001 RMK A01 T02590189  RH  065%=      5-min Rain = 0
KLO1 181102Z 18011KT 26/19 A3001 RMK A01 T02590189  RH  065%=      5-min Rain = 0
KLO1 181103Z 17011KT 26/19 A3001 RMK A01 T02590189  RH  065%=      5-min Rain = 0
KLO1 181104Z 18011KT 26/19 A3001 RMK A01 T02590189  RH  065%=      5-min Rain = 0
KLO1 181105Z 18009KT 26/19 A3001 RMK A01 T02590189  RH  065%=      5-min Rain = 0
KLO1 181106Z 18009KT 26/19 A3001 RMK A01 T02590189  RH  065%=      5-min Rain = 0
KLO1 181107Z 18011KT 26/19 A3001 RMK A01 T02590189  RH  065%=      5-min Rain = 0
KLO1 181108Z 17010KT 26/19 A3001 RMK A01 T02590189  RH  065%=      5-min Rain = 0
KLO1 181109Z 18010KT 26/19 A30 RMK A01 T02590190  RH  066%=      5-min Rain = 0
KLO1 181110Z 18008KT 26/19 A30 RMK A01 T02590189  RH  066%=      5-min Rain = 0
KLO1 181111Z 18009KT 26/19 A30 RMK A01 T02580189  RH  066%=      5-min Rain = 0
KLO1 181112Z 18009KT 26/19 A30 RMK A01 T02580189  RH  066%=      5-min Rain = 0
KLO1 181113Z 18010KT 26/19 A3001 RMK A01 T02580189  RH  066%=      5-min Rain = 0
KLO1 181114Z 18010KT 26/19 A3001 RMK A01 T02580190  RH  066%=      5-min Rain = 0
KLO1 181115Z 17008KT 26/19 A3001 RMK A01 T02570190  RH  066%=      5-min Rain = 0
KLO1 181116Z 18009KT 26/19 A3001 RMK A01 T02570190  RH  066%=      5-min Rain = 0
KLO1 181117Z 18010KT 26/19 A30 RMK A01 T02570190  RH  066%=      5-min Rain = 0
KLO1 181118Z 18010KT 26/19 A30 RMK A01 T02570189  RH  066%=      5-min Rain = 0
KLO1 181119Z 17009KT 26/19 A30 RMK A01 T02570190  RH  066%=      5-min Rain = 0
KLO1 181120Z 18009KT 26/19 A3001 RMK A01 T02570190  RH  066%=      5-min Rain = 0
KLO1 181121Z 17009KT 26/19 A3001 RMK A01 T02570190  RH  066%=      5-min Rain = 0
KLO1 181122Z 18008KT 26/19 A3001 RMK A01 T02570190  RH  066%=      5-min Rain = 0
KLO1 181123Z 18010KT 26/19 A3001 RMK A01 T02570190  RH  067%=      5-min Rain = 0
KLO1 181124Z 18009KT 26/19 A3001 RMK A01 T02570190  RH  067%=      5-min Rain = 0
KLO1 181125Z 18011KT 26/19 A3001 RMK A01 T02570190  RH  067%=      5-min Rain = 0
KLO1 181126Z 18009KT 26/19 A3001 RMK A01 T02570190  RH  067%=      5-min Rain = 0
KLO1 181127Z 18009KT 26/19 A3001 RMK A01 T02560190  RH  067%=      5-min Rain = 0
KLO1 181128Z 18009KT 26/19 A3001 RMK A01 T02560190  RH  067%=      5-min Rain = 0
KLO1 181129Z 18009KT 26/19 A3001 RMK A01 T02560190  RH  067%=      5-min Rain = 0
KLO1 181130Z 18008KT 26/19 A3001 RMK A01 T02560190  RH  067%=      5-min Rain = 0
KLO1 181131Z 18009KT 26/19 A3001 RMK A01 T02560190  RH  067%=      5-min Rain = 0
KLO1 181132Z 18009KT 26/19 A3001 RMK A01 T02560190  RH  067%=      5-min Rain = 0
KLO1 181133Z 18009KT 26/19 A3001 RMK A01 T02550190  RH  067%=      5-min Rain = 0
KLO1 181134Z 18008KT 26/19 A3001 RMK A01 T02550190  RH  067%=      5-min Rain = 0
KLO1 181135Z 17007KT 26/19 A3001 RMK A01 T02550190  RH  067%=      5-min Rain = 0
KLO1 181136Z 17009KT 26/19 A3001 RMK A01 T02550190  RH  067%=      5-min Rain = 0
KLO1 181137Z 18008KT 26/19 A3001 RMK A01 T02550191  RH  067%=      5-min Rain = 0
KLO1 181138Z 17009KT 26/19 A3001 RMK A01 T02550190  RH  067%=      5-min Rain = 0
KLO1 181139Z 18009KT 26/19 A3001 RMK A01 T02550190  RH  068%=      5-min Rain = 0
KLO1 181140Z 17010KT 26/19 A3001 RMK A01 T02550190  RH  067%=      5-min Rain = 0
KLO1 181141Z 17010KT 26/19 A3001 RMK A01 T02550190  RH  067%=      5-min Rain = 0
KLO1 181142Z 17010KT 26/19 A3001 RMK A01 T02550190  RH  068%=      5-min Rain = 0
KLO1 181143Z 17010KT 26/19 A3001 RMK A01 T02550191  RH  068%=      5-min Rain = 0
KLO1 181144Z 17011KT 26/19 A3001 RMK A01 T02550190  RH  067%=      5-min Rain = 0
KLO1 181145Z 17010KT 26/19 A3001 RMK A01 T02550190  RH  068%=      5-min Rain = 0
KLO1 181146Z 17009KT 26/19 A3001 RMK A01 T02550191  RH  068%=      5-min Rain = 0
KLO1 181147Z 17010KT 26/19 A3001 RMK A01 T02550191  RH  068%=      5-min Rain = 0
KLO1 181148Z 17010KT 26/19 A3001 RMK A01 T02550191  RH  068%=      5-min Rain = 0
KLO1 181149Z 17010KT 26/19 A3001 RMK A01 T02550191  RH  068%=      5-min Rain = 0
KLO1 181150Z 16010KT 26/19 A3001 RMK A01 T02550191  RH  068%=      5-min Rain = 0
KLO1 181151Z 17010KT 26/19 A3001 RMK A01 T02550191  RH  068%=      5-min Rain = 0
KLO1 181152Z 17009KT 26/19 A3001 RMK A01 T02550191  RH  068%=      5-min Rain = 0
KLO1 181153Z 17008KT 26/19 A3001 RMK A01 T02550191  RH  068%=      5-min Rain = 0
KLO1 181154Z 16010KT 26/19 A3001 RMK A01 T02550192  RH  068%=      5-min Rain = 0
KLO1 181155Z 16009KT 25/19 A3001 RMK A01 T02540192  RH  068%=      5-min Rain = 0
KLO1 181156Z 16010KT 25/19 A3001 RMK A01 T02540192  RH  068%=      5-min Rain = 0
KLO1 181157Z 16009KT 25/19 A3001 RMK A01 T02540192  RH  068%=      5-min Rain = 0
KLO1 181158Z 16011KT 25/19 A3001 RMK A01 T02540192  RH  069%=      5-min Rain = 0
KLO1 181159Z 16009KT 25/19 A3001 RMK A01 T02540192  RH  069%=      5-min Rain = 0
KLO1 181200Z 16009KT 25/19 A3001 RMK A01 T02540192  RH  069%=      5-min Rain = 0
KLO1 181201Z 16009KT 25/19 A3001 RMK A01 T02530192  RH  069%=      5-min Rain = 0
KLO1 181202Z 16009KT 25/19 A3001 RMK A01 T02530192  RH  069%=      5-min Rain = 0
KLO1 181203Z 16011KT 25/19 A3001 RMK A01 T02530192  RH  069%=      5-min Rain = 0
KLO1 181204Z 16009KT 25/19 A30 RMK A01 T02530193  RH  069%=      5-min Rain = 0
KLO1 181205Z 16009KT 25/19 A3001 RMK A01 T02530193  RH  069%=      5-min Rain = 0
KLO1 181206Z 16011KT 25/19 A30 RMK A01 T02530193  RH  069%=      5-min Rain = 0
KLO1 181207Z 16009KT 25/19 A3001 RMK A01 T02530193  RH  069%=      5-min Rain = 0
KLO1 181208Z 15010KT 25/19 A3001 RMK A01 T02530193  RH  069%=      5-min Rain = 0
KLO1 181209Z 16008KT 25/19 A3001 RMK A01 T02530193  RH  070%=      5-min Rain = 0
KLO1 181210Z 16009KT 25/19 A3001 RMK A01 T02530193  RH  070%=      5-min Rain = 0
KLO1 181211Z 16009G14KT 25/19 A3001 RMK A01 T02530193  RH  070%=      5-min Rain = 0
KLO1 181212Z 16010KT 25/19 A3001 RMK A01 T02530194  RH  070%=      5-min Rain = 0
KLO1 181213Z 16009KT 25/19 A3001 RMK A01 T02530194  RH  070%=      5-min Rain = 0
KLO1 181214Z 16009KT 25/19 A3001 RMK A01 T02530194  RH  070%=      5-min Rain = 0
KLO1 181215Z 16009KT 25/19 A3001 RMK A01 T02530194  RH  070%=      5-min Rain = 0
KLO1 181216Z 16010KT 25/19 A3001 RMK A01 T02530194  RH  070%=      5-min Rain = 0
KLO1 181217Z 16009KT 25/19 A3001 RMK A01 T02530194  RH  070%=      5-min Rain = 0
KLO1 181218Z 16009KT 25/19 A3001 RMK A01 T02530194  RH  070%=      5-min Rain = 0
KLO1 181219Z 16010KT 25/19 A3001 RMK A01 T02530194  RH  070%=      5-min Rain = 0
KLO1 181220Z 15010KT 25/19 A3001 RMK A01 T02540194  RH  070%=      5-min Rain = 0
KLO1 181221Z 16008KT 25/20 A3001 RMK A01 T02540195  RH  070%=      5-min Rain = 0
KLO1 181222Z 15009KT 25/19 A3001 RMK A01 T02540194  RH  070%=      5-min Rain = 0
KLO1 181223Z 15008KT 25/20 A3001 RMK A01 T02540195  RH  070%=      5-min Rain = 0
KLO1 181224Z 15009KT 25/20 A3001 RMK A01 T02540195  RH  070%=      5-min Rain = 0
KLO1 181225Z 16008KT 25/19 A3001 RMK A01 T02540194  RH  070%=      5-min Rain = 0
KLO1 181226Z 15009KT 25/20 A3001 RMK A01 T02540195  RH  070%=      5-min Rain = 0
KLO1 181227Z 16010KT 25/20 A3001 RMK A01 T02540195  RH  070%=      5-min Rain = 0
KLO1 181228Z 16008KT 25/20 A3001 RMK A01 T02540195  RH  070%=      5-min Rain = 0
KLO1 181229Z 16009KT 25/20 A3001 RMK A01 T02540195  RH  070%=      5-min Rain = 0
KLO1 181230Z 16009KT 25/20 A3001 RMK A01 T02540195  RH  070%=      5-min Rain = 0
KLO1 181231Z 16009KT 25/20 A3001 RMK A01 T02540195  RH  070%=      5-min Rain = 0
KLO1 181232Z 15009KT 26/20 A3001 RMK A01 T02550195  RH  070%=      5-min Rain = 0
KLO1 181233Z 15009KT 26/20 A3001 RMK A01 T02550195  RH  070%=      5-min Rain = 0
KLO1 181234Z 16010KT 26/20 A3001 RMK A01 T02550195  RH  069%=      5-min Rain = 0
KLO1 181235Z 16010KT 26/20 A3001 RMK A01 T02550195  RH  069%=      5-min Rain = 0
KLO1 181236Z 15008KT 26/20 A3001 RMK A01 T02550195  RH  069%=      5-min Rain = 0
KLO1 181237Z 16009KT 26/20 A3001 RMK A01 T02550195  RH  069%=      5-min Rain = 0
KLO1 181238Z 16011KT 26/20 A3001 RMK A01 T02550195  RH  069%=      5-min Rain = 0
KLO1 181239Z 16010KT 26/20 A3001 RMK A01 T02550195  RH  069%=      5-min Rain = 0
KLO1 181240Z 16010KT 26/20 A3001 RMK A01 T02550195  RH  069%=      5-min Rain = 0
KLO1 181241Z 16009KT 26/20 A3001 RMK A01 T02560195  RH  069%=      5-min Rain = 0
KLO1 181242Z 16010KT 26/20 A3001 RMK A01 T02560195  RH  069%=      5-min Rain = 0
KLO1 181243Z 16009KT 26/20 A3001 RMK A01 T02560195  RH  069%=      5-min Rain = 0
KLO1 181244Z 16010KT 26/20 A3001 RMK A01 T02560195  RH  069%=      5-min Rain = 0
KLO1 181245Z 16010KT 26/20 A3001 RMK A01 T02570196  RH  069%=      5-min Rain = 0
KLO1 181246Z 16012KT 26/20 A3001 RMK A01 T02570196  RH  069%=      5-min Rain = 0
KLO1 181247Z 16013KT 26/20 A3001 RMK A01 T02570195  RH  069%=      5-min Rain = 0
KLO1 181248Z 17013KT 26/20 A3001 RMK A01 T02570195  RH  069%=      5-min Rain = 0
KLO1 181249Z 17013KT 26/20 A3001 RMK A01 T02570195  RH  068%=      5-min Rain = 0
KLO1 181250Z 16013KT 26/20 A3001 RMK A01 T02580195  RH  068%=      5-min Rain = 0
KLO1 181251Z 17011KT 26/20 A3001 RMK A01 T02570195  RH  068%=      5-min Rain = 0
KLO1 181252Z 16013KT 26/20 A3001 RMK A01 T02580195  RH  068%=      5-min Rain = 0
KLO1 181253Z 17014KT 26/20 A3001 RMK A01 T02580195  RH  068%=      5-min Rain = 0
KLO1 181254Z 17014KT 26/20 A3001 RMK A01 T02580195  RH  068%=      5-min Rain = 0
KLO1 181255Z 17014KT 26/20 A3001 RMK A01 T02590195  RH  068%=      5-min Rain = 0
KLO1 181256Z 17012KT 26/20 A3001 RMK A01 T02590195  RH  068%=      5-min Rain = 0
KLO1 181257Z 17012KT 26/20 A3001 RMK A01 T02590196  RH  068%=      5-min Rain = 0
KLO1 181258Z 17015KT 26/20 A3001 RMK A01 T02600196  RH  068%=      5-min Rain = 0
KLO1 181259Z 17014KT 26/20 A3001 RMK A01 T02600195  RH  067%=      5-min Rain = 0
KLO1 181300Z 17012KT 26/20 A3001 RMK A01 T02600195  RH  068%=      5-min Rain = 0
KLO1 181301Z 17013KT 26/20 A3001 RMK A01 T02610196  RH  067%=      5-min Rain = 0
KLO1 181302Z 18015KT 26/20 A3001 RMK A01 T02610196  RH  067%=      5-min Rain = 0
KLO1 181303Z 17014KT 26/20 A3001 RMK A01 T02610196  RH  067%=      5-min Rain = 0
KLO1 181304Z 17015KT 26/20 A3001 RMK A01 T02610196  RH  067%=      5-min Rain = 0
KLO1 181305Z 17011KT 26/20 A3001 RMK A01 T02610195  RH  067%=      5-min Rain = 0
KLO1 181306Z 17013KT 26/20 A3001 RMK A01 T02610196  RH  067%=      5-min Rain = 0
KLO1 181307Z 17012KT 26/20 A3001 RMK A01 T02620196  RH  067%=      5-min Rain = 0
KLO1 181308Z 18011KT 26/20 A3001 RMK A01 T02620196  RH  067%=      5-min Rain = 0
KLO1 181309Z 17014KT 26/20 A3001 RMK A01 T02630196  RH  067%=      5-min Rain = 0
KLO1 181310Z 17013KT 26/20 A3001 RMK A01 T02640196  RH  066%=      5-min Rain = 0
KLO1 181311Z 17016KT 26/20 A3001 RMK A01 T02630196  RH  067%=      5-min Rain = 0
KLO1 181312Z 18013KT 26/20 A3001 RMK A01 T02630196  RH  066%=      5-min Rain = 0
KLO1 181313Z 17013KT 26/20 A3001 RMK A01 T02630196  RH  067%=      5-min Rain = 0
KLO1 181314Z 18015KT 26/20 A3001 RMK A01 T02630196  RH  067%=      5-min Rain = 0
KLO1 181315Z 18014KT 26/20 A3001 RMK A01 T02630196  RH  066%=      5-min Rain = 0
KLO1 181316Z 18015KT 26/20 A3001 RMK A01 T02630196  RH  067%=      5-min Rain = 0
KLO1 181317Z 18015KT 26/20 A3001 RMK A01 T02640196  RH  066%=      5-min Rain = 0
KLO1 181318Z 17014KT 26/20 A3001 RMK A01 T02640196  RH  067%=      5-min Rain = 0
KLO1 181319Z 17019KT 26/20 A3001 RMK A01 T02640196  RH  066%=      5-min Rain = 0
KLO1 181320Z 17017KT 26/20 A3001 RMK A01 T02640195  RH  066%=      5-min Rain = 0
KLO1 181321Z 17018KT 26/20 A3001 RMK A01 T02640196  RH  066%=      5-min Rain = 0
KLO1 181322Z 17017KT 26/20 A3001 RMK A01 T02640195  RH  066%=      5-min Rain = 0
KLO1 181323Z 17018KT 26/20 A3001 RMK A01 T02640196  RH  066%=      5-min Rain = 0
KLO1 181324Z 17019KT 26/20 A3001 RMK A01 T02640195  RH  066%=      5-min Rain = 0
KLO1 181325Z 18015KT 26/20 A3001 RMK A01 T02640196  RH  066%=      5-min Rain = 0
KLO1 181326Z 18014KT 27/20 A3001 RMK A01 T02650196  RH  066%=      5-min Rain = 0
KLO1 181327Z 18018G23KT 27/20 A3001 RMK A01 T02660196  RH  066%=      5-min Rain = 0
KLO1 181328Z 18020KT 27/20 A3001 RMK A01 T02660195  RH  065%=      5-min Rain = 0
KLO1 181329Z 17020KT 27/20 A3001 RMK A01 T02650195  RH  066%=      5-min Rain = 0
KLO1 181330Z 18017KT 27/20 A3001 RMK A01 T02650195  RH  065%=      5-min Rain = 0
KLO1 181331Z 18016KT 27/20 A3001 RMK A01 T02650195  RH  066%=      5-min Rain = 0
KLO1 181332Z 18015G21KT 27/20 A3001 RMK A01 T02650196  RH  066%=      5-min Rain = 0
KLO1 181333Z 18017KT 27/20 A3001 RMK A01 T02660196  RH  066%=      5-min Rain = 0
KLO1 181334Z 18017G22KT 27/20 A3001 RMK A01 T02670196  RH  065%=      5-min Rain = 0
KLO1 181335Z 18020KT 27/20 A3001 RMK A01 T02660195  RH  065%=      5-min Rain = 0
KLO1 181336Z 17019KT 27/20 A3001 RMK A01 T02660195  RH  065%=      5-min Rain = 0
KLO1 181337Z 17019KT 27/20 A3001 RMK A01 T02660195  RH  065%=      5-min Rain = 0
KLO1 181338Z 18019KT 27/20 A3001 RMK A01 T02660195  RH  065%=      5-min Rain = 0
KLO1 181339Z 18019KT 27/20 A3001 RMK A01 T02660195  RH  065%=      5-min Rain = 0
KLO1 181340Z 18019KT 27/20 A3001 RMK A01 T02660195  RH  065%=      5-min Rain = 0
KLO1 181341Z 18019KT 27/20 A3001 RMK A01 T02670195  RH  065%=      5-min Rain = 0
KLO1 181342Z 18017KT 27/20 A3001 RMK A01 T02670195  RH  065%=      5-min Rain = 0
KLO1 181343Z 19016G21KT 27/20 A3001 RMK A01 T02670196  RH  065%=      5-min Rain = 0
KLO1 181344Z 19017KT 27/20 A3001 RMK A01 T02680196  RH  064%=      5-min Rain = 0
KLO1 181345Z 17016KT 27/20 A3001 RMK A01 T02690196  RH  064%=      5-min Rain = 0
KLO1 181346Z 17016KT 27/20 A3001 RMK A01 T02700196  RH  064%=      5-min Rain = 0
KLO1 181347Z 17020KT 27/20 A3001 RMK A01 T02700195  RH  064%=      5-min Rain = 0
KLO1 181348Z 17021KT 27/20 A3001 RMK A01 T02700195  RH  063%=      5-min Rain = 0
KLO1 181349Z 17019KT 27/19 A3001 RMK A01 T02690194  RH  063%=      5-min Rain = 0
KLO1 181350Z 18020KT 27/19 A3001 RMK A01 T02680194  RH  064%=      5-min Rain = 0
KLO1 181351Z 18019KT 27/19 A3001 RMK A01 T02680194  RH  064%=      5-min Rain = 0
KLO1 181352Z 18018KT 27/19 A3001 RMK A01 T02680194  RH  064%=      5-min Rain = 0
KLO1 181353Z 18020KT 27/20 A3001 RMK A01 T02690195  RH  064%=      5-min Rain = 0
KLO1 181354Z 18020KT 27/19 A3001 RMK A01 T02690194  RH  063%=      5-min Rain = 0
KLO1 181355Z 18016KT 27/19 A3001 RMK A01 T02690194  RH  064%=      5-min Rain = 0
KLO1 181356Z 17020KT 27/19 A3001 RMK A01 T02700194  RH  063%=      5-min Rain = 0
KLO1 181357Z 19019KT 27/19 A3001 RMK A01 T02700194  RH  063%=      5-min Rain = 0
KLO1 181358Z 19018KT 27/20 A3001 RMK A01 T02700195  RH  064%=      5-min Rain = 0
KLO1 181359Z 18018KT 27/20 A3001 RMK A01 T02700195  RH  064%=      5-min Rain = 0
KLO1 181400Z 19019KT 27/20 A3001 RMK A01 T02700195  RH  063%=      5-min Rain = 0
KLO1 181401Z 19019KT 27/19 A3001 RMK A01 T02690194  RH  063%=      5-min Rain = 0
KLO1 181402Z 18017KT 27/20 A3001 RMK A01 T02700195  RH  064%=      5-min Rain = 0
KLO1 181403Z 18017KT 27/20 A3001 RMK A01 T02710195  RH  063%=      5-min Rain = 0
KLO1 181404Z 18019KT 27/20 A3001 RMK A01 T02710195  RH  063%=      5-min Rain = 0
KLO1 181405Z 18019KT 27/19 A3001 RMK A01 T02710194  RH  063%=      5-min Rain = 0
KLO1 181406Z 18017KT 27/19 A3001 RMK A01 T02710194  RH  063%=      5-min Rain = 0
KLO1 181407Z 18019KT 27/20 A3001 RMK A01 T02720195  RH  063%=      5-min Rain = 0
KLO1 181408Z 18020KT 27/19 A3001 RMK A01 T02720194  RH  062%=      5-min Rain = 0
KLO1 181409Z 17018KT 27/19 A3001 RMK A01 T02720194  RH  063%=      5-min Rain = 0
KLO1 181410Z 17019KT 27/19 A3001 RMK A01 T02720194  RH  062%=      5-min Rain = 0
KLO1 181411Z 17020KT 27/19 A3001 RMK A01 T02730194  RH  062%=      5-min Rain = 0
KLO1 181412Z 17019G24KT 27/19 A3001 RMK A01 T02730194  RH  062%=      5-min Rain = 0
KLO1 181413Z 17018KT 27/19 A3001 RMK A01 T02730194  RH  062%=      5-min Rain = 0
KLO1 181414Z 18015G21KT 27/19 A3001 RMK A01 T02730194  RH  062%=      5-min Rain = 0
KLO1 181415Z 17017KT 28/20 A3001 RMK A01 T02750195  RH  062%=      5-min Rain = 0
KLO1 181416Z 18014KT 28/20 A3001 RMK A01 T02750195  RH  062%=      5-min Rain = 0
KLO1 181417Z 18019KT 28/20 A3001 RMK A01 T02760195  RH  061%=      5-min Rain = 0
KLO1 181418Z 18018KT 28/20 A3001 RMK A01 T02750195  RH  061%=      5-min Rain = 0
KLO1 181419Z 18019KT 28/19 A3001 RMK A01 T02750194  RH  061%=      5-min Rain = 0
KLO1 181420Z 18021KT 28/19 A3001 RMK A01 T02760193  RH  061%=      5-min Rain = 0
KLO1 181421Z 18021KT 28/19 A3001 RMK A01 T02760194  RH  061%=      5-min Rain = 0
KLO1 181422Z 18019KT 28/19 A3001 RMK A01 T02750193  RH  061%=      5-min Rain = 0
KLO1 181423Z 18019KT 28/19 A3001 RMK A01 T02750193  RH  061%=      5-min Rain = 0
KLO1 181424Z 19018KT 28/19 A3001 RMK A01 T02750193  RH  061%=      5-min Rain = 0
KLO1 181425Z 18019KT 28/19 A3001 RMK A01 T02760194  RH  061%=      5-min Rain = 0
KLO1 181426Z 18018KT 28/19 A3001 RMK A01 T02760193  RH  061%=      5-min Rain = 0
KLO1 181427Z 17019KT 28/19 A30 RMK A01 T02770194  RH  061%=      5-min Rain = 0
KLO1 181428Z 17019KT 28/19 A30 RMK A01 T02770194  RH  060%=      5-min Rain = 0
KLO1 181429Z 17019KT 28/19 A30 RMK A01 T02770193  RH  060%=      5-min Rain = 0
KLO1 181430Z 18017KT 28/19 A30 RMK A01 T02780194  RH  060%=      5-min Rain = 0
KLO1 181431Z 19017KT 28/19 A30 RMK A01 T02790194  RH  060%=      5-min Rain = 0
KLO1 181432Z 18018KT 28/19 A30 RMK A01 T02790194  RH  060%=      5-min Rain = 0
KLO1 181433Z 18019KT 28/19 A3001 RMK A01 T02790194  RH  060%=      5-min Rain = 0
KLO1 181434Z 18020KT 28/19 A30 RMK A01 T02790194  RH  060%=      5-min Rain = 0
KLO1 181435Z 17018KT 28/19 A3001 RMK A01 T02790193  RH  060%=      5-min Rain = 0
KLO1 181436Z 17017KT 28/19 A3001 RMK A01 T02800193  RH  059%=      5-min Rain = 0
KLO1 181437Z 18018KT 28/19 A3001 RMK A01 T02820194  RH  059%=      5-min Rain = 0
KLO1 181438Z 18018KT 28/19 A30 RMK A01 T02810193  RH  059%=      5-min Rain = 0
KLO1 181439Z 17017KT 28/19 A30 RMK A01 T02800194  RH  059%=      5-min Rain = 0
KLO1 181440Z 18019KT 28/20 A30 RMK A01 T02820195  RH  059%=      5-min Rain = 0
KLO1 181441Z 18021KT 28/19 A30 RMK A01 T02820193  RH  058%=      5-min Rain = 0
KLO1 181442Z 18020KT 28/19 A3001 RMK A01 T02820193  RH  059%=      5-min Rain = 0
KLO1 181443Z 18016KT 28/19 A3001 RMK A01 T02810194  RH  059%=      5-min Rain = 0
KLO1 181444Z 18015KT 28/19 A3001 RMK A01 T02800194  RH  060%=      5-min Rain = 0
KLO1 181445Z 17018KT 28/19 A3001 RMK A01 T02800194  RH  059%=      5-min Rain = 0
KLO1 181446Z 17017G22KT 28/19 A30 RMK A01 T02810193  RH  059%=      5-min Rain = 0
KLO1 181447Z 18016KT 28/19 A30 RMK A01 T02820194  RH  059%=      5-min Rain = 0
KLO1 181448Z 18015KT 28/20 A3001 RMK A01 T02840195  RH  059%=      5-min Rain = 0
KLO1 181449Z 18017G22KT 29/20 A3001 RMK A01 T02850196  RH  058%=      5-min Rain = 0
KLO1 181450Z 18018KT 29/19 A3001 RMK A01 T02850194  RH  058%=      5-min Rain = 0
KLO1 181451Z 18018KT 28/19 A30 RMK A01 T02840194  RH  058%=      5-min Rain = 0
KLO1 181452Z 18018KT 28/19 A30 RMK A01 T02840193  RH  058%=      5-min Rain = 0
KLO1 181453Z 17019KT 28/19 A30 RMK A01 T02840193  RH  058%=      5-min Rain = 0
KLO1 181454Z 17018KT 28/19 A30 RMK A01 T02840193  RH  058%=      5-min Rain = 0
KLO1 181455Z 18016KT 29/19 A3001 RMK A01 T02850193  RH  057%=      5-min Rain = 0
KLO1 181456Z 18018KT 29/19 A3001 RMK A01 T02860194  RH  057%=      5-min Rain = 0
KLO1 181457Z 18017KT 29/19 A3001 RMK A01 T02860194  RH  057%=      5-min Rain = 0
KLO1 181458Z 18019KT 29/19 A3001 RMK A01 T02860194  RH  057%=      5-min Rain = 0
KLO1 181459Z 18017KT 29/19 A3001 RMK A01 T02850193  RH  058%=      5-min Rain = 0
KLO1 181500Z 18018KT 29/19 A30 RMK A01 T02850193  RH  057%=      5-min Rain = 0
KLO1 181501Z 18019KT 29/19 A3001 RMK A01 T02860193  RH  057%=      5-min Rain = 0
KLO1 181502Z 18018KT 29/19 A3001 RMK A01 T02860192  RH  057%=      5-min Rain = 0
KLO1 181503Z 19015KT 29/19 A3001 RMK A01 T02850193  RH  057%=      5-min Rain = 0
KLO1 181504Z 18018KT 29/19 A3001 RMK A01 T02870194  RH  057%=      5-min Rain = 0
KLO1 181505Z 18018KT 29/19 A3001 RMK A01 T02880193  RH  057%=      5-min Rain = 0
KLO1 181506Z 18015KT 29/19 A3001 RMK A01 T02880193  RH  056%=      5-min Rain = 0
KLO1 181507Z 18017KT 29/19 A3001 RMK A01 T02880194  RH  057%=      5-min Rain = 0
KLO1 181508Z 17019KT 29/19 A3001 RMK A01 T02890194  RH  057%=      5-min Rain = 0
KLO1 181509Z 17017KT 29/19 A3001 RMK A01 T02890193  RH  056%=      5-min Rain = 0
KLO1 181510Z 17015KT 29/19 A3001 RMK A01 T02880193  RH  056%=      5-min Rain = 0
KLO1 181511Z 17017KT 29/19 A30 RMK A01 T02900194  RH  056%=      5-min Rain = 0
KLO1 181512Z 18015KT 29/20 A3001 RMK A01 T02900195  RH  057%=      5-min Rain = 0
KLO1 181513Z 19015KT 29/19 A3001 RMK A01 T02900194  RH  056%=      5-min Rain = 0
KLO1 181514Z 18017G23KT 29/19 A30 RMK A01 T02910194  RH  056%=      5-min Rain = 0
KLO1 181515Z 18018KT 29/19 A30 RMK A01 T02920194  RH  055%=      5-min Rain = 0
KLO1 181516Z 18015G21KT 29/19 A30 RMK A01 T02920194  RH  055%=      5-min Rain = 0
KLO1 181517Z 17015KT 29/19 A30 RMK A01 T02920193  RH  055%=      5-min Rain = 0
KLO1 181518Z 18015KT 29/19 A30 RMK A01 T02930193  RH  055%=      5-min Rain = 0
KLO1 181519Z 17017KT 29/19 A30 RMK A01 T02940194  RH  055%=      5-min Rain = 0
KLO1 181520Z 18015KT 29/19 A30 RMK A01 T02930194  RH  055%=      5-min Rain = 0
KLO1 181521Z 18016G21KT 29/19 A30 RMK A01 T02930194  RH  055%=      5-min Rain = 0
KLO1 181522Z 18017KT 29/19 A30 RMK A01 T02920194  RH  055%=      5-min Rain = 0
KLO1 181523Z 19019KT 29/19 A30 RMK A01 T02930194  RH  055%=      5-min Rain = 0
KLO1 181524Z 19018KT 29/19 A30 RMK A01 T02920192  RH  055%=      5-min Rain = 0
KLO1 181525Z 18016KT 29/19 A30 RMK A01 T02910194  RH  056%=      5-min Rain = 0
KLO1 181526Z 18017KT 29/20 A30 RMK A01 T02930196  RH  056%=      5-min Rain = 0
KLO1 181527Z 18020KT 30/20 A30 RMK A01 T02960195  RH  055%=      5-min Rain = 0
KLO1 181528Z 18017KT 30/19 A30 RMK A01 T02950194  RH  054%=      5-min Rain = 0
KLO1 181529Z 18019KT 30/19 A30 RMK A01 T02950194  RH  054%=      5-min Rain = 0
KLO1 181530Z 18018KT 30/20 A30 RMK A01 T02950195  RH  055%=      5-min Rain = 0
KLO1 181531Z 18016KT 30/20 A30 RMK A01 T02950196  RH  055%=      5-min Rain = 0
KLO1 181532Z 18017KT 30/20 A30 RMK A01 T02970196  RH  054%=      5-min Rain = 0
KLO1 181533Z 18017KT 30/20 A30 RMK A01 T02970195  RH  054%=      5-min Rain = 0
KLO1 181534Z 17018KT 30/19 A30 RMK A01 T02960194  RH  054%=      5-min Rain = 0
KLO1 181535Z 18018KT 30/19 A30 RMK A01 T02960192  RH  054%=      5-min Rain = 0
KLO1 181536Z 18014G20KT 30/19 A30 RMK A01 T02960192  RH  054%=      5-min Rain = 0
KLO1 181537Z 18015KT 30/19 A30 RMK A01 T02980192  RH  053%=      5-min Rain = 0
KLO1 181538Z 20016KT 30/19 A30 RMK A01 T02990193  RH  053%=      5-min Rain = 0
KLO1 181539Z 19017G22KT 30/19 A30 RMK A01 T03000194  RH  053%=      5-min Rain = 0
KLO1 181540Z 19015KT 30/19 A30 RMK A01 T03000194  RH  053%=      5-min Rain = 0
KLO1 181541Z 19018KT 30/19 A30 RMK A01 T03000193  RH  053%=      5-min Rain = 0
KLO1 181542Z 18015KT 30/19 A30 RMK A01 T03000194  RH  053%=      5-min Rain = 0
KLO1 181543Z 18018KT 30/19 A30 RMK A01 T03000193  RH  053%=      5-min Rain = 0
KLO1 181544Z 18017KT 30/19 A30 RMK A01 T03000191  RH  052%=      5-min Rain = 0
KLO1 181545Z 17016KT 30/19 A30 RMK A01 T03000191  RH  052%=      5-min Rain = 0
KLO1 181546Z 18016G22KT 30/19 A30 RMK A01 T02990190  RH  052%=      5-min Rain = 0
KLO1 181547Z 17018KT 30/19 A30 RMK A01 T02990192  RH  053%=      5-min Rain = 0
KLO1 181548Z 18015G20KT 30/19 A30 RMK A01 T03000193  RH  053%=      5-min Rain = 0
KLO1 181549Z 18020KT 30/19 A30 RMK A01 T03020192  RH  052%=      5-min Rain = 0
KLO1 181550Z 18019KT 30/19 A30 RMK A01 T03020191  RH  052%=      5-min Rain = 0
KLO1 181551Z 17019KT 30/19 A30 RMK A01 T03020191  RH  052%=      5-min Rain = 0
KLO1 181552Z 17019KT 30/19 A30 RMK A01 T03010190  RH  051%=      5-min Rain = 0
KLO1 181553Z 17016KT 30/19 A30 RMK A01 T03020191  RH  051%=      5-min Rain = 0
KLO1 181554Z 19018KT 30/19 A30 RMK A01 T03040190  RH  051%=      5-min Rain = 0
KLO1 181555Z 19015KT 31/19 A30 RMK A01 T03050186  RH  049%=      5-min Rain = 0
KLO1 181556Z 19017KT 31/19 A30 RMK A01 T03050188  RH  050%=      5-min Rain = 0
KLO1 181557Z 19015KT 31/19 A30 RMK A01 T03070192  RH  050%=      5-min Rain = 0
KLO1 181558Z 19017KT 31/19 A2999 RMK A01 T03060189  RH  050%=      5-min Rain = 0
KLO1 181559Z 18018G24KT 30/19 A2999 RMK A01 T03030188  RH  050%=      5-min Rain = 0
KLO1 181600Z 19017KT 30/19 A2999 RMK A01 T03040186  RH  049%=      5-min Rain = 0
KLO1 181601Z 19018KT 30/19 A2999 RMK A01 T03040186  RH  049%=      5-min Rain = 0
KLO1 181602Z 18017KT 31/19 A2999 RMK A01 T03050186  RH  049%=      5-min Rain = 0
KLO1 181603Z 18016KT 31/19 A30 RMK A01 T03060186  RH  049%=      5-min Rain = 0
KLO1 181604Z 19016KT 31/19 A30 RMK A01 T03070187  RH  049%=      5-min Rain = 0
KLO1 181605Z 18016KT 31/19 A30 RMK A01 T03070187  RH  049%=      5-min Rain = 0
KLO1 181606Z 18015KT 31/19 A30 RMK A01 T03050188  RH  050%=      5-min Rain = 0
KLO1 181607Z 17016KT 31/19 A2999 RMK A01 T03060186  RH  049%=      5-min Rain = 0
KLO1 181608Z 18018KT 31/18 A2999 RMK A01 T03070184  RH  048%=      5-min Rain = 0
KLO1 181609Z 19014KT 31/19 A30 RMK A01 T03070185  RH  048%=      5-min Rain = 0
KLO1 181610Z 20015KT 31/19 A2999 RMK A01 T03080185  RH  048%=      5-min Rain = 0
KLO1 181611Z 19014KT 31/18 A2999 RMK A01 T03090183  RH  047%=      5-min Rain = 0
KLO1 181612Z 18017KT 31/19 A2999 RMK A01 T03090185  RH  048%=      5-min Rain = 0
KLO1 181613Z 18019KT 31/18 A2999 RMK A01 T03100184  RH  047%=      5-min Rain = 0
KLO1 181614Z 18016KT 31/18 A30 RMK A01 T03110181  RH  046%=      5-min Rain = 0
KLO1 181615Z 18016KT 31/18 A2999 RMK A01 T03100183  RH  047%=      5-min Rain = 0
KLO1 181616Z 18014KT 31/19 A2999 RMK A01 T03090186  RH  048%=      5-min Rain = 0
KLO1 181617Z 19017KT 31/19 A2999 RMK A01 T03110187  RH  048%=      5-min Rain = 0
KLO1 181618Z 18014KT 31/19 A2999 RMK A01 T03120186  RH  047%=      5-min Rain = 0
KLO1 181619Z 18015KT 31/19 A30 RMK A01 T03140186  RH  047%=      5-min Rain = 0
KLO1 181620Z 17013KT 32/18 A30 RMK A01 T03150183  RH  046%=      5-min Rain = 0
KLO1 181621Z 19016KT 32/19 A30 RMK A01 T03150187  RH  047%=      5-min Rain = 0
KLO1 181622Z 18017KT 32/19 A30 RMK A01 T03150187  RH  047%=      5-min Rain = 0
KLO1 181623Z 19015KT 31/19 A30 RMK A01 T03130188  RH  047%=      5-min Rain = 0
KLO1 181624Z 18017KT 31/19 A30 RMK A01 T03120188  RH  047%=      5-min Rain = 0
KLO1 181625Z 18013KT 31/19 A30 RMK A01 T03110186  RH  047%=      5-min Rain = 0
KLO1 181626Z 18012KT 31/18 A30 RMK A01 T03110184  RH  047%=      5-min Rain = 0
KLO1 181627Z 18017KT 31/19 A2999 RMK A01 T03110185  RH  047%=      5-min Rain = 0
KLO1 181628Z 18019KT 31/19 A30 RMK A01 T03140186  RH  047%=      5-min Rain = 0
KLO1 181629Z 17016KT 31/19 A2999 RMK A01 T03140186  RH  046%=      5-min Rain = 0
KLO1 181630Z 17013KT 31/19 A2999 RMK A01 T03140186  RH  047%=      5-min Rain = 0
KLO1 181631Z 17014KT 32/19 A2999 RMK A01 T03150188  RH  047%=      5-min Rain = 0
KLO1 181632Z 19018KT 32/19 A2999 RMK A01 T03190186  RH  045%=      5-min Rain = 0
KLO1 181633Z 20016KT 32/18 A2999 RMK A01 T03180183  RH  045%=      5-min Rain = 0
KLO1 181634Z 20017KT 32/18 A2999 RMK A01 T03160184  RH  045%=      5-min Rain = 0
KLO1 181635Z 20015KT 32/18 A2999 RMK A01 T03160183  RH  045%=      5-min Rain = 0
KLO1 181636Z 19011KT 32/18 A30 RMK A01 T03150179  RH  044%=      5-min Rain = 0
KLO1 181637Z 19012KT 32/18 A2999 RMK A01 T03150180  RH  045%=      5-min Rain = 0
KLO1 181638Z 19017KT 32/19 A2999 RMK A01 T03170185  RH  045%=      5-min Rain = 0
KLO1 181639Z 20017KT 32/18 A2999 RMK A01 T03170184  RH  045%=      5-min Rain = 0
KLO1 181640Z 19016KT 32/18 A2999 RMK A01 T03170183  RH  045%=      5-min Rain = 0
KLO1 181641Z 20011KT 32/18 A30 RMK A01 T03150183  RH  045%=      5-min Rain = 0
KLO1 181642Z 19013KT 32/19 A2999 RMK A01 T03160185  RH  046%=      5-min Rain = 0
KLO1 181643Z 20014KT 32/18 A2999 RMK A01 T03180184  RH  045%=      5-min Rain = 0
KLO1 181644Z 18016KT 32/18 A2999 RMK A01 T03190180  RH  044%=      5-min Rain = 0
KLO1 181645Z 18014KT 32/18 A2999 RMK A01 T03200179  RH  043%=      5-min Rain = 0
KLO1 181646Z 18015KT 32/18 A2999 RMK A01 T03210179  RH  043%=      5-min Rain = 0
KLO1 181647Z 18013KT 32/18 A2999 RMK A01 T03210179  RH  043%=      5-min Rain = 0
KLO1 181648Z 18012KT 32/18 A2999 RMK A01 T03210180  RH  043%=      5-min Rain = 0
KLO1 181649Z 19013KT 32/18 A2999 RMK A01 T03230184  RH  044%=      5-min Rain = 0
KLO1 181650Z 20015KT 33/18 A2999 RMK A01 T03260183  RH  043%=      5-min Rain = 0
KLO1 181651Z 19016KT 33/18 A2999 RMK A01 T03250180  RH  042%=      5-min Rain = 0
KLO1 181652Z 19015KT 32/18 A2999 RMK A01 T03230178  RH  042%=      5-min Rain = 0
KLO1 181653Z 19016KT 32/18 A2999 RMK A01 T03220177  RH  042%=      5-min Rain = 0
KLO1 181654Z 19017KT 32/18 A2999 RMK A01 T03220177  RH  042%=      5-min Rain = 0
KLO1 181655Z 21012KT 32/18 A2999 RMK A01 T03200176  RH  042%=      5-min Rain = 0
KLO1 181656Z 20015KT 32/18 A2999 RMK A01 T03220178  RH  042%=      5-min Rain = 0
KLO1 181657Z 20012KT 32/18 A2999 RMK A01 T03240176  RH  041%=      5-min Rain = 0
KLO1 181658Z 20010KT 32/18 A2999 RMK A01 T03240176  RH  041%=      5-min Rain = 0
KLO1 181659Z 20012KT 33/18 A2999 RMK A01 T03260177  RH  041%=      5-min Rain = 0
KLO1 181700Z 20013KT 33/18 A2999 RMK A01 T03270176  RH  041%=      5-min Rain = 0
KLO1 181701Z 19014G19KT 33/18 A2999 RMK A01 T03250175  RH  041%=      5-min Rain = 0
KLO1 181702Z 19016KT 33/17 A2999 RMK A01 T03260173  RH  040%=      5-min Rain = 0
KLO1 181703Z 19016KT 33/17 A2999 RMK A01 T03260174  RH  040%=      5-min Rain = 0
KLO1 181704Z 19014KT 33/18 A2999 RMK A01 T03250176  RH  041%=      5-min Rain = 0
KLO1 181705Z 20013KT 32/18 A2999 RMK A01 T03230177  RH  042%=      5-min Rain = 0
KLO1 181706Z 21012KT 32/18 A2999 RMK A01 T03230177  RH  042%=      5-min Rain = 0
KLO1 181707Z 20015KT 33/18 A2999 RMK A01 T03250178  RH  042%=      5-min Rain = 0
KLO1 181708Z 20013KT 33/18 A2999 RMK A01 T03280181  RH  042%=      5-min Rain = 0
KLO1 181709Z 20013KT 33/18 A2999 RMK A01 T03310180  RH  041%=      5-min Rain = 0
KLO1 181710Z 18013KT 33/18 A2999 RMK A01 T03310180  RH  041%=      5-min Rain = 0
KLO1 181711Z 18013KT 33/18 A2999 RMK A01 T03310178  RH  040%=      5-min Rain = 0
KLO1 181712Z 19013KT 33/18 A2998 RMK A01 T03310178  RH  040%=      5-min Rain = 0
KLO1 181713Z 20012KT 33/18 A2999 RMK A01 T03300176  RH  040%=      5-min Rain = 0
KLO1 181714Z 20017KT 33/17 A2998 RMK A01 T03320172  RH  038%=      5-min Rain = 0
KLO1 181715Z 20014KT 33/17 A2999 RMK A01 T03300173  RH  039%=      5-min Rain = 0
KLO1 181716Z 20013KT 33/18 A2999 RMK A01 T03280175  RH  040%=      5-min Rain = 0
KLO1 181717Z 20012KT 33/18 A2999 RMK A01 T03290176  RH  040%=      5-min Rain = 0
KLO1 181718Z 19013KT 33/18 A2999 RMK A01 T03300180  RH  041%=      5-min Rain = 0
KLO1 181719Z 19014KT 33/18 A2999 RMK A01 T03300181  RH  041%=      5-min Rain = 0
KLO1 181720Z 18013KT 33/18 A2999 RMK A01 T03280177  RH  041%=      5-min Rain = 0
KLO1 181721Z 16013KT 33/18 A2999 RMK A01 T03290177  RH  041%=      5-min Rain = 0
KLO1 181722Z 16012KT 33/18 A2998 RMK A01 T03320179  RH  040%=      5-min Rain = 0
KLO1 181723Z 16017G22KT 34/18 A2998 RMK A01 T03350182  RH  040%=      5-min Rain = 0
KLO1 181724Z 18015KT 34/19 A2998 RMK A01 T03350185  RH  041%=      5-min Rain = 0
KLO1 181725Z 18013KT 34/19 A2998 RMK A01 T03360186  RH  041%=      5-min Rain = 0
KLO1 181726Z 19013KT 34/18 A2998 RMK A01 T03370183  RH  040%=      5-min Rain = 0
KLO1 181727Z 19013KT 34/18 A2998 RMK A01 T03370179  RH  039%=      5-min Rain = 0
KLO1 181728Z 20015KT 33/18 A2998 RMK A01 T03330178  RH  040%=      5-min Rain = 0
KLO1 181729Z 18016KT 33/18 A2998 RMK A01 T03320180  RH  041%=      5-min Rain = 0
KLO1 181730Z 19010KT 33/18 A2999 RMK A01 T03320179  RH  040%=      5-min Rain = 0
KLO1 181731Z 20014KT 33/18 A2998 RMK A01 T03330180  RH  040%=      5-min Rain = 0
KLO1 181732Z 20013KT 33/18 A2998 RMK A01 T03320180  RH  040%=      5-min Rain = 0
KLO1 181733Z 20011KT 33/18 A2998 RMK A01 T03340180  RH  040%=      5-min Rain = 0
KLO1 181734Z 17012KT 33/18 A2998 RMK A01 T03320181  RH  041%=      5-min Rain = 0
KLO1 181735Z 17015KT 33/18 A2998 RMK A01 T03320179  RH  040%=      5-min Rain = 0
KLO1 181736Z 17015KT 34/18 A2998 RMK A01 T03350181  RH  040%=      5-min Rain = 0
KLO1 181737Z 16011KT 34/18 A2998 RMK A01 T03350180  RH  040%=      5-min Rain = 0
KLO1 181738Z 17012KT 33/18 A2998 RMK A01 T03330181  RH  041%=      5-min Rain = 0
KLO1 181739Z 18012KT 33/18 A2998 RMK A01 T03340184  RH  041%=      5-min Rain = 0
KLO1 181740Z 17013KT 34/19 A2998 RMK A01 T03360185  RH  041%=      5-min Rain = 0
KLO1 181741Z 18010KT 34/19 A2998 RMK A01 T03380186  RH  041%=      5-min Rain = 0
KLO1 181742Z 18012KT 34/19 A2998 RMK A01 T03420186  RH  040%=      5-min Rain = 0
KLO1 181743Z 17012KT 34/18 A2998 RMK A01 T03420181  RH  038%=      5-min Rain = 0
KLO1 181744Z 18009G14KT 34/18 A2998 RMK A01 T03380179  RH  039%=      5-min Rain = 0
KLO1 181745Z 19015KT 34/18 A2998 RMK A01 T03380182  RH  040%=      5-min Rain = 0
KLO1 181746Z 19013KT 34/18 A2998 RMK A01 T03400178  RH  038%=      5-min Rain = 0
KLO1 181747Z 18012KT 34/18 A2998 RMK A01 T03380177  RH  039%=      5-min Rain = 0
KLO1 181748Z 18013KT 34/18 A2998 RMK A01 T03370177  RH  039%=      5-min Rain = 0
KLO1 181749Z 18012KT 34/18 A2998 RMK A01 T03350177  RH  039%=      5-min Rain = 0
KLO1 181750Z 19011KT 34/18 A2998 RMK A01 T03350177  RH  039%=      5-min Rain = 0
KLO1 181751Z 18014KT 34/18 A2998 RMK A01 T03400181  RH  039%=      5-min Rain = 0
KLO1 181752Z 17014KT 34/18 A2998 RMK A01 T03420180  RH  038%=      5-min Rain = 0
KLO1 181753Z 17010KT 34/18 A2998 RMK A01 T03390179  RH  039%=      5-min Rain = 0
KLO1 181754Z 19011G16KT 34/18 A2998 RMK A01 T03380180  RH  039%=      5-min Rain = 0
KLO1 181755Z 18012KT 34/18 A2998 RMK A01 T03400181  RH  039%=      5-min Rain = 0
KLO1 181756Z 18013KT 34/18 A2998 RMK A01 T03420181  RH  039%=      5-min Rain = 0
KLO1 181757Z 18011KT 34/18 A2998 RMK A01 T03420183  RH  039%=      5-min Rain = 0
KLO1 181758Z 17010KT 34/18 A2998 RMK A01 T03410181  RH  039%=      5-min Rain = 0
KLO1 181759Z 18011KT 34/18 A2998 RMK A01 T03410183  RH  039%=      5-min Rain = 0
KLO1 181800Z 19012KT 34/18 A2997 RMK A01 T03430183  RH  039%=      5-min Rain = 0
KLO1 181801Z 16010KT 34/18 A2997 RMK A01 T03440184  RH  039%=      5-min Rain = 0
KLO1 181802Z 19012KT 35/18 A2998 RMK A01 T03470182  RH  038%=      5-min Rain = 0
KLO1 181803Z 19013KT 35/18 A2998 RMK A01 T03460180  RH  038%=      5-min Rain = 0
KLO1 181804Z 18012KT 34/18 A2997 RMK A01 T03440183  RH  038%=      5-min Rain = 0
KLO1 181805Z 19015KT 34/18 A2997 RMK A01 T03440182  RH  038%=      5-min Rain = 0
KLO1 181806Z 18011KT 34/18 A2998 RMK A01 T03410181  RH  039%=      5-min Rain = 0
KLO1 181807Z 18011KT 34/18 A2997 RMK A01 T03410182  RH  039%=      5-min Rain = 0
KLO1 181808Z 19014KT 34/18 A2997 RMK A01 T03400183  RH  039%=      5-min Rain = 0
KLO1 181809Z 18014KT 34/18 A2997 RMK A01 T03410183  RH  039%=      5-min Rain = 0
KLO1 181810Z 16015KT 35/18 A2997 RMK A01 T03450182  RH  038%=      5-min Rain = 0
KLO1 181811Z 17016G21KT 35/18 A2997 RMK A01 T03450182  RH  038%=      5-min Rain = 0
KLO1 181812Z 17018KT 35/18 A2997 RMK A01 T03460180  RH  038%=      5-min Rain = 0
KLO1 181813Z 16012KT 35/18 A2997 RMK A01 T03450180  RH  038%=      5-min Rain = 0
KLO1 181814Z 18013KT 35/18 A2997 RMK A01 T03450181  RH  038%=      5-min Rain = 0
KLO1 181815Z 18014KT 35/18 A2997 RMK A01 T03470182  RH  038%=      5-min Rain = 0
KLO1 181816Z 18015KT 35/18 A2997 RMK A01 T03490181  RH  037%=      5-min Rain = 0
KLO1 181817Z 20014KT 35/18 A2997 RMK A01 T03460179  RH  037%=      5-min Rain = 0
KLO1 181818Z 20016KT 35/18 A2997 RMK A01 T03450180  RH  038%=      5-min Rain = 0
KLO1 181819Z 19013KT 35/18 A2997 RMK A01 T03470179  RH  037%=      5-min Rain = 0
KLO1 181820Z 18010KT 35/18 A2997 RMK A01 T03460181  RH  038%=      5-min Rain = 0
KLO1 181821Z 20011KT 35/18 A2997 RMK A01 T03470182  RH  038%=      5-min Rain = 0
KLO1 181822Z 19013KT 35/18 A2997 RMK A01 T03490182  RH  037%=      5-min Rain = 0
KLO1 181823Z 20014KT 35/18 A2997 RMK A01 T03500181  RH  037%=      5-min Rain = 0
KLO1 181824Z 21010KT 35/18 A2997 RMK A01 T03470179  RH  037%=      5-min Rain = 0
KLO1 181825Z 17011KT 35/18 A2997 RMK A01 T03470181  RH  037%=      5-min Rain = 0
KLO1 181826Z 16012KT 35/18 A2997 RMK A01 T03500182  RH  037%=      5-min Rain = 0
KLO1 181827Z 16011KT 35/18 A2996 RMK A01 T03520181  RH  037%=      5-min Rain = 0
KLO1 181828Z 17012KT 35/18 A2996 RMK A01 T03540180  RH  036%=      5-min Rain = 0
KLO1 181829Z 19012KT 35/18 A2996 RMK A01 T03540180  RH  036%=      5-min Rain = 0
KLO1 181830Z 20014KT 35/18 A2996 RMK A01 T03520177  RH  036%=      5-min Rain = 0
KLO1 181831Z 20013KT 35/18 A2996 RMK A01 T03510175  RH  035%=      5-min Rain = 0
KLO1 181832Z 20015KT 35/17 A2996 RMK A01 T03480174  RH  036%=      5-min Rain = 0
KLO1 181833Z 16014KT 35/18 A2996 RMK A01 T03490176  RH  036%=      5-min Rain = 0
KLO1 181834Z 17012KT 35/18 A2996 RMK A01 T03490176  RH  036%=      5-min Rain = 0
KLO1 181835Z 18014KT 35/17 A2996 RMK A01 T03510174  RH  035%=      5-min Rain = 0
KLO1 181836Z 20013KT 35/18 A2996 RMK A01 T03530175  RH  035%=      5-min Rain = 0
KLO1 181837Z 20012KT 35/18 A2996 RMK A01 T03530175  RH  035%=      5-min Rain = 0
KLO1 181838Z 20012KT 35/18 A2996 RMK A01 T03530175  RH  035%=      5-min Rain = 0
KLO1 181839Z 20012KT 35/17 A2996 RMK A01 T03530171  RH  034%=      5-min Rain = 0
KLO1 181840Z 18013KT 35/17 A2996 RMK A01 T03500173  RH  035%=      5-min Rain = 0
KLO1 181841Z 16013KT 35/18 A2996 RMK A01 T03490175  RH  036%=      5-min Rain = 0
KLO1 181842Z 16012KT 35/18 A2996 RMK A01 T03520175  RH  035%=      5-min Rain = 0
KLO1 181843Z 17011KT 35/17 A2996 RMK A01 T03540174  RH  035%=      5-min Rain = 0
KLO1 181844Z 18010KT 35/17 A2996 RMK A01 T03530174  RH  035%=      5-min Rain = 0
KLO1 181845Z 20014KT 36/18 A2996 RMK A01 T03550175  RH  035%=      5-min Rain = 0
KLO1 181846Z 19013KT 35/17 A2996 RMK A01 T03540173  RH  034%=      5-min Rain = 0
KLO1 181847Z 19012KT 35/17 A2996 RMK A01 T03520170  RH  034%=      5-min Rain = 0
KLO1 181848Z 18012KT 35/17 A2996 RMK A01 T03500169  RH  034%=      5-min Rain = 0
KLO1 181849Z 17014KT 35/17 A2996 RMK A01 T03510169  RH  034%=      5-min Rain = 0
KLO1 181850Z 18016KT 35/17 A2995 RMK A01 T03520173  RH  035%=      5-min Rain = 0
KLO1 181851Z 18017KT 35/18 A2996 RMK A01 T03540175  RH  035%=      5-min Rain = 0
KLO1 181852Z 19015KT 35/17 A2995 RMK A01 T03540173  RH  034%=      5-min Rain = 0
KLO1 181853Z 18013KT 35/17 A2995 RMK A01 T03530172  RH  034%=      5-min Rain = 0
KLO1 181854Z 19016KT 35/17 A2995 RMK A01 T03520173  RH  035%=      5-min Rain = 0
KLO1 181855Z 19014KT 35/17 A2995 RMK A01 T03540173  RH  034%=      5-min Rain = 0
KLO1 181856Z 19015KT 35/17 A2995 RMK A01 T03540174  RH  034%=      5-min Rain = 0
KLO1 181857Z 19015KT 36/17 A2995 RMK A01 T03560171  RH  034%=      5-min Rain = 0
KLO1 181858Z 19014KT 36/17 A2995 RMK A01 T03560172  RH  034%=      5-min Rain = 0
KLO1 181859Z 20012KT 36/17 A2995 RMK A01 T03570171  RH  033%=      5-min Rain = 0
KLO1 181900Z 19009KT 36/17 A2995 RMK A01 T03560170  RH  033%=      5-min Rain = 0
KLO1 181901Z 18014KT 36/17 A2995 RMK A01 T03560172  RH  034%=      5-min Rain = 0
KLO1 181902Z 19016KT 36/18 A2995 RMK A01 T03560175  RH  034%=      5-min Rain = 0
KLO1 181903Z 18017KT 36/18 A2995 RMK A01 T03560176  RH  035%=      5-min Rain = 0
KLO1 181904Z 19012KT 35/17 A2995 RMK A01 T03540174  RH  035%=      5-min Rain = 0
KLO1 181905Z 17013KT 35/18 A2995 RMK A01 T03540176  RH  035%=      5-min Rain = 0
KLO1 181906Z 16012G17KT 36/18 A2995 RMK A01 T03550175  RH  035%=      5-min Rain = 0
KLO1 181907Z 14013KT 35/18 A2995 RMK A01 T03540175  RH  035%=      5-min Rain = 0
KLO1 181908Z 15011KT 36/18 A2995 RMK A01 T03560176  RH  035%=      5-min Rain = 0
KLO1 181909Z 16016G23KT 36/18 A2995 RMK A01 T03600178  RH  034%=      5-min Rain = 0
KLO1 181910Z 19013G20KT 36/18 A2995 RMK A01 T03620177  RH  034%=      5-min Rain = 0
KLO1 181911Z 17014KT 36/18 A2995 RMK A01 T03590178  RH  035%=      5-min Rain = 0
KLO1 181912Z 17012KT 36/18 A2995 RMK A01 T03590176  RH  034%=      5-min Rain = 0
KLO1 181913Z 19011G17KT 36/18 A2995 RMK A01 T03590179  RH  034%=      5-min Rain = 0
KLO1 181914Z 19015KT 36/18 A2995 RMK A01 T03610178  RH  034%=      5-min Rain = 0
KLO1 181915Z 20013KT 36/18 A2995 RMK A01 T03590178  RH  034%=      5-min Rain = 0
KLO1 181916Z 17014G19KT 36/18 A2995 RMK A01 T03600178  RH  034%=      5-min Rain = 0
KLO1 181917Z 17012KT 36/18 A2995 RMK A01 T03620176  RH  034%=      5-min Rain = 0
KLO1 181918Z 18015KT 36/18 A2995 RMK A01 T03610177  RH  034%=      5-min Rain = 0
KLO1 181919Z 19014KT 36/18 A2994 RMK A01 T03610177  RH  034%=      5-min Rain = 0
KLO1 181920Z 19018KT 36/18 A2994 RMK A01 T03610177  RH  034%=      5-min Rain = 0
KLO1 181921Z 18015KT 36/18 A2994 RMK A01 T03610177  RH  034%=      5-min Rain = 0
KLO1 181922Z 17013KT 36/18 A2994 RMK A01 T03630176  RH  033%=      5-min Rain = 0
KLO1 181923Z 17012KT 36/17 A2994 RMK A01 T03620174  RH  033%=      5-min Rain = 0
KLO1 181924Z 18014KT 36/18 A2994 RMK A01 T03600175  RH  034%=      5-min Rain = 0
KLO1 181925Z 18015G22KT 36/18 A2994 RMK A01 T03600176  RH  034%=      5-min Rain = 0
KLO1 181926Z 17016G21KT 36/18 A2994 RMK A01 T03610175  RH  033%=      5-min Rain = 0
KLO1 181927Z 16015KT 36/18 A2994 RMK A01 T03630175  RH  033%=      5-min Rain = 0
KLO1 181928Z 15015KT 36/18 A2994 RMK A01 T03640176  RH  033%=      5-min Rain = 0
KLO1 181929Z 17013KT 36/18 A2994 RMK A01 T03630175  RH  033%=      5-min Rain = 0
KLO1 181930Z 18014KT 36/18 A2994 RMK A01 T03640176  RH  033%=      5-min Rain = 0
KLO1 181931Z 19012G17KT 36/17 A2994 RMK A01 T03620172  RH  033%=      5-min Rain = 0
KLO1 181932Z 19014KT 36/18 A2994 RMK A01 T03610175  RH  033%=      5-min Rain = 0
KLO1 181933Z 18016G21KT 36/18 A2994 RMK A01 T03640177  RH  033%=      5-min Rain = 0
KLO1 181934Z 17014KT 37/18 A2994 RMK A01 T03660176  RH  033%=      5-min Rain = 0
KLO1 181935Z 17014KT 36/18 A2994 RMK A01 T03640176  RH  033%=      5-min Rain = 0
KLO1 181936Z 17012KT 37/18 A2994 RMK A01 T03650178  RH  033%=      5-min Rain = 0
KLO1 181937Z 17009KT 37/18 A2994 RMK A01 T03670179  RH  033%=      5-min Rain = 0
KLO1 181938Z 16012KT 37/18 A2994 RMK A01 T03700178  RH  032%=      5-min Rain = 0
KLO1 181939Z 19013G21KT 37/17 A2994 RMK A01 T03690173  RH  032%=      5-min Rain = 0
KLO1 181940Z 18015KT 37/17 A2994 RMK A01 T03670174  RH  032%=      5-min Rain = 0
KLO1 181941Z 18017KT 37/17 A2994 RMK A01 T03660174  RH  032%=      5-min Rain = 0
KLO1 181942Z 17018KT 37/17 A2994 RMK A01 T03660172  RH  032%=      5-min Rain = 0
KLO1 181943Z 17013KT 37/17 A2994 RMK A01 T03650171  RH  032%=      5-min Rain = 0
KLO1 181944Z 18012G18KT 37/17 A2994 RMK A01 T03650172  RH  032%=      5-min Rain = 0
KLO1 181945Z 18016KT 37/17 A2994 RMK A01 T03650171  RH  032%=      5-min Rain = 0
KLO1 181946Z 18012KT 36/17 A2994 RMK A01 T03630169  RH  032%=      5-min Rain = 0
KLO1 181947Z 17014KT 36/17 A2994 RMK A01 T03610172  RH  033%=      5-min Rain = 0
KLO1 181948Z 16012KT 36/17 A2994 RMK A01 T03630174  RH  033%=      5-min Rain = 0
KLO1 181949Z 19013KT 37/18 A2994 RMK A01 T03660176  RH  033%=      5-min Rain = 0
KLO1 181950Z 18021KT 37/17 A2993 RMK A01 T03670174  RH  032%=      5-min Rain = 0
KLO1 181951Z 17019KT 37/17 A2993 RMK A01 T03680170  RH  031%=      5-min Rain = 0
KLO1 181952Z 17018KT 37/17 A2993 RMK A01 T03680169  RH  031%=      5-min Rain = 0
KLO1 181953Z 17019KT 37/17 A2993 RMK A01 T03690168  RH  031%=      5-min Rain = 0
KLO1 181954Z 17016KT 37/17 A2993 RMK A01 T03670169  RH  031%=      5-min Rain = 0
KLO1 181955Z 17014G20KT 37/17 A2993 RMK A01 T03650169  RH  031%=      5-min Rain = 0
KLO1 181956Z 18017KT 37/17 A2993 RMK A01 T03680171  RH  031%=      5-min Rain = 0
KLO1 181957Z 18015KT 37/17 A2994 RMK A01 T03670169  RH  031%=      5-min Rain = 0
KLO1 181958Z 19011KT 36/17 A2993 RMK A01 T03630169  RH  032%=      5-min Rain = 0
KLO1 181959Z 19011KT 36/17 A2993 RMK A01 T03600169  RH  033%=      5-min Rain = 0
KLO1 182000Z 18018KT 36/17 A2993 RMK A01 T03600173  RH  033%=      5-min Rain = 0
KLO1 182001Z 19017KT 36/17 A2993 RMK A01 T03640174  RH  033%=      5-min Rain = 0
KLO1 182002Z 18017KT 36/17 A2993 RMK A01 T03640173  RH  032%=      5-min Rain = 0
KLO1 182003Z 19016KT 37/17 A2993 RMK A01 T03660172  RH  032%=      5-min Rain = 0
KLO1 182004Z 20014KT 37/17 A2993 RMK A01 T03660172  RH  032%=      5-min Rain = 0
KLO1 182005Z 20012KT 37/17 A2993 RMK A01 T03660172  RH  032%=      5-min Rain = 0
KLO1 182006Z 16014G20KT 37/17 A2993 RMK A01 T03690174  RH  032%=      5-min Rain = 0
KLO1 182007Z 17014KT 37/17 A2993 RMK A01 T03720171  RH  031%=      5-min Rain = 0
KLO1 182008Z 17017KT 37/17 A2993 RMK A01 T03710171  RH  031%=      5-min Rain = 0
KLO1 182009Z 16019KT 37/17 A2993 RMK A01 T03710170  RH  031%=      5-min Rain = 0
KLO1 182010Z 16020KT 37/17 A2992 RMK A01 T03710167  RH  030%=      5-min Rain = 0
KLO1 182011Z 16016KT 37/17 A2992 RMK A01 T03690167  RH  030%=      5-min Rain = 0
KLO1 182012Z 15014KT 37/17 A2992 RMK A01 T03700168  RH  030%=      5-min Rain = 0
KLO1 182013Z 16013KT 37/17 A2992 RMK A01 T03720168  RH  030%=      5-min Rain = 0
KLO1 182014Z 15016KT 37/17 A2992 RMK A01 T03730168  RH  030%=      5-min Rain = 0
KLO1 182015Z 17016KT 37/17 A2992 RMK A01 T03740168  RH  030%=      5-min Rain = 0
KLO1 182016Z 17015G20KT 38/16 A2992 RMK A01 T03770164  RH  029%=      5-min Rain = 0
KLO1 182017Z 16019KT 37/16 A2992 RMK A01 T03740162  RH  029%=      5-min Rain = 0
KLO1 182018Z 16018KT 37/16 A2992 RMK A01 T03730161  RH  029%=      5-min Rain = 0
KLO1 182019Z 16016KT 37/16 A2992 RMK A01 T03720164  RH  029%=      5-min Rain = 0
KLO1 182020Z 16015KT 37/16 A2992 RMK A01 T03710164  RH  029%=      5-min Rain = 0
KLO1 182021Z 17011KT 37/16 A2992 RMK A01 T03680163  RH  030%=      5-min Rain = 0
KLO1 182022Z 17013KT 37/16 A2992 RMK A01 T03670164  RH  030%=      5-min Rain = 0
KLO1 182023Z 17017KT 37/16 A2992 RMK A01 T03690162  RH  029%=      5-min Rain = 0
KLO1 182024Z 15015KT 37/16 A2992 RMK A01 T03720160  RH  029%=      5-min Rain = 0
KLO1 182025Z 15011KT 38/16 A2992 RMK A01 T03750160  RH  028%=      5-min Rain = 0
KLO1 182026Z 16014G19KT 38/16 A2992 RMK A01 T03750162  RH  029%=      5-min Rain = 0
KLO1 182027Z 16017KT 38/16 A2992 RMK A01 T03770164  RH  029%=      5-min Rain = 0
KLO1 182028Z 17016KT 38/16 A2992 RMK A01 T03770160  RH  028%=      5-min Rain = 0
KLO1 182029Z 17014KT 38/16 A2992 RMK A01 T03760161  RH  028%=      5-min Rain = 0
KLO1 182030Z 15010KT 38/16 A2992 RMK A01 T03750161  RH  028%=      5-min Rain = 0
KLO1 182031Z 16011G16KT 37/16 A2992 RMK A01 T03730162  RH  029%=      5-min Rain = 0
KLO1 182032Z 16013KT 37/16 A2992 RMK A01 T03740158  RH  028%=      5-min Rain = 0
KLO1 182033Z 16011KT 37/16 A2992 RMK A01 T03700159  RH  029%=      5-min Rain = 0
KLO1 182034Z 16015G20KT 37/16 A2992 RMK A01 T03740163  RH  029%=      5-min Rain = 0
KLO1 182035Z 17015KT 38/16 A2992 RMK A01 T03770162  RH  028%=      5-min Rain = 0
KLO1 182036Z 18014KT 38/16 A2992 RMK A01 T03760161  RH  028%=      5-min Rain = 0
KLO1 182037Z 18014KT 37/16 A2992 RMK A01 T03740163  RH  029%=      5-min Rain = 0
KLO1 182038Z 17012KT 38/16 A2992 RMK A01 T03750163  RH  029%=      5-min Rain = 0
KLO1 182039Z 17015KT 38/16 A2992 RMK A01 T03780161  RH  028%=      5-min Rain = 0
KLO1 182040Z 17012KT 38/16 A2992 RMK A01 T03770159  RH  028%=      5-min Rain = 0
KLO1 182041Z 17012KT 37/16 A2992 RMK A01 T03730156  RH  028%=      5-min Rain = 0
KLO1 182042Z 17015KT 37/16 A2992 RMK A01 T03720158  RH  028%=      5-min Rain = 0
KLO1 182043Z 15016KT 37/16 A2991 RMK A01 T03730155  RH  028%=      5-min Rain = 0
KLO1 182044Z 15017KT 37/16 A2991 RMK A01 T03740159  RH  028%=      5-min Rain = 0
KLO1 182045Z 15015KT 38/16 A2991 RMK A01 T03750160  RH  028%=      5-min Rain = 0
KLO1 182046Z 15016KT 38/16 A2991 RMK A01 T03750160  RH  028%=      5-min Rain = 0
KLO1 182047Z 16014KT 37/16 A2991 RMK A01 T03740157  RH  028%=      5-min Rain = 0
KLO1 182048Z 16014KT 37/15 A2991 RMK A01 T03740154  RH  027%=      5-min Rain = 0
KLO1 182049Z 16015KT 38/15 A2991 RMK A01 T03780150  RH  026%=      5-min Rain = 0
KLO1 182050Z 16011KT 38/15 A2991 RMK A01 T03770150  RH  026%=      5-min Rain = 0
KLO1 182051Z 18011KT 38/15 A2991 RMK A01 T03750151  RH  027%=      5-min Rain = 0
KLO1 182052Z 17011KT 37/15 A2991 RMK A01 T03740152  RH  027%=      5-min Rain = 0
KLO1 182053Z 19013KT 37/15 A2991 RMK A01 T03720154  RH  027%=      5-min Rain = 0
KLO1 182054Z 18014KT 37/16 A2991 RMK A01 T03730157  RH  028%=      5-min Rain = 0
KLO1 182055Z 18015KT 38/15 A2991 RMK A01 T03770153  RH  027%=      5-min Rain = 0
KLO1 182056Z 17014KT 38/15 A2991 RMK A01 T03780153  RH  027%=      5-min Rain = 0
KLO1 182057Z 18015KT 38/15 A2991 RMK A01 T03780153  RH  026%=      5-min Rain = 0
KLO1 182058Z 18013KT 38/15 A2991 RMK A01 T03780149  RH  026%=      5-min Rain = 0
KLO1 182059Z 15015KT 38/15 A2991 RMK A01 T03780151  RH  026%=      5-min Rain = 0
KLO1 182100Z 16017KT 38/15 A2991 RMK A01 T03790153  RH  026%=      5-min Rain = 0
KLO1 182101Z 16017KT 38/15 A2991 RMK A01 T03790154  RH  026%=      5-min Rain = 0
KLO1 182102Z 16016KT 38/15 A2991 RMK A01 T03790152  RH  026%=      5-min Rain = 0
KLO1 182103Z 16016KT 38/15 A2991 RMK A01 T03780153  RH  027%=      5-min Rain = 0
KLO1 182104Z 16016KT 38/15 A2991 RMK A01 T03780154  RH  027%=      5-min Rain = 0
KLO1 182105Z 15015KT 38/16 A2991 RMK A01 T03790156  RH  027%=      5-min Rain = 0
KLO1 182106Z 17012KT 38/16 A2991 RMK A01 T03800156  RH  027%=      5-min Rain = 0
KLO1 182107Z 18012KT 38/15 A2991 RMK A01 T03810152  RH  026%=      5-min Rain = 0
KLO1 182108Z 20017G22KT 38/15 A2991 RMK A01 T03820153  RH  026%=      5-min Rain = 0
KLO1 182109Z 20013G19KT 38/15 A2991 RMK A01 T03780147  RH  026%=      5-min Rain = 0
KLO1 182110Z 20017KT 38/15 A299 RMK A01 T03750149  RH  026%=      5-min Rain = 0
KLO1 182111Z 18016KT 38/15 A2991 RMK A01 T03770152  RH  026%=      5-min Rain = 0
KLO1 182112Z 18014KT 38/15 A2991 RMK A01 T03800152  RH  026%=      5-min Rain = 0
KLO1 182113Z 18012KT 38/15 A299 RMK A01 T03790149  RH  026%=      5-min Rain = 0
KLO1 182114Z 18008KT 38/15 A299 RMK A01 T03750146  RH  026%=      5-min Rain = 0
KLO1 182115Z 17012KT 37/15 A299 RMK A01 T03740148  RH  026%=      5-min Rain = 0
KLO1 182116Z 16016G21KT 38/15 A299 RMK A01 T03770146  RH  025%=      5-min Rain = 0
KLO1 182117Z 17018KT 38/15 A299 RMK A01 T03800146  RH  025%=      5-min Rain = 0
KLO1 182118Z 17020KT 38/15 A299 RMK A01 T03810147  RH  025%=      5-min Rain = 0
KLO1 182119Z 16015KT 38/15 A299 RMK A01 T03790148  RH  025%=      5-min Rain = 0
KLO1 182120Z 17013KT 38/15 A299 RMK A01 T03770147  RH  026%=      5-min Rain = 0
KLO1 182121Z 18011KT 38/15 A299 RMK A01 T03760146  RH  026%=      5-min Rain = 0
KLO1 182122Z 17012KT 38/15 A299 RMK A01 T03760145  RH  026%=      5-min Rain = 0
KLO1 182123Z 17013G19KT 38/15 A299 RMK A01 T03780145  RH  025%=      5-min Rain = 0
KLO1 182124Z 15017KT 38/14 A299 RMK A01 T03810140  RH  024%=      5-min Rain = 0
KLO1 182125Z 14018G24KT 38/14 A299 RMK A01 T03810138  RH  024%=      5-min Rain = 0
KLO1 182126Z 15022KT 38/14 A299 RMK A01 T03800142  RH  024%=      5-min Rain = 0
KLO1 182127Z 15018KT 38/14 A299 RMK A01 T03800144  RH  025%=      5-min Rain = 0
KLO1 182128Z 15014G21KT 38/14 A299 RMK A01 T03790143  RH  025%=      5-min Rain = 0
KLO1 182129Z 17013KT 38/14 A299 RMK A01 T03810143  RH  025%=      5-min Rain = 0
KLO1 182130Z 17015KT 38/14 A299 RMK A01 T03830143  RH  024%=      5-min Rain = 0
KLO1 182131Z 17012KT 38/14 A299 RMK A01 T03820140  RH  024%=      5-min Rain = 0
KLO1 182132Z 18013KT 38/14 A299 RMK A01 T03810141  RH  024%=      5-min Rain = 0
KLO1 182133Z 18017KT 38/14 A2989 RMK A01 T03820143  RH  024%=      5-min Rain = 0
KLO1 182134Z 18017KT 38/14 A2989 RMK A01 T03820142  RH  024%=      5-min Rain = 0
KLO1 182135Z 18016KT 38/15 A2989 RMK A01 T03800146  RH  025%=      5-min Rain = 0
KLO1 182136Z 18018KT 38/14 A299 RMK A01 T03820144  RH  025%=      5-min Rain = 0
KLO1 182137Z 18016KT 38/14 A2989 RMK A01 T03820142  RH  024%=      5-min Rain = 0
KLO1 182138Z 18010KT 38/14 A299 RMK A01 T03820144  RH  024%=      5-min Rain = 0
KLO1 182139Z 15010KT 39/14 A2989 RMK A01 T03850144  RH  024%=      5-min Rain = 0
KLO1 182140Z 15014KT 39/14 A2989 RMK A01 T03850141  RH  024%=      5-min Rain = 0
KLO1 182141Z 16012KT 38/14 A2989 RMK A01 T03820139  RH  024%=      5-min Rain = 0
KLO1 182142Z 18010KT 38/14 A2989 RMK A01 T03800140  RH  024%=      5-min Rain = 0
KLO1 182143Z 18014KT 38/15 A2989 RMK A01 T03820146  RH  025%=      5-min Rain = 0
KLO1 182144Z 19018KT 38/15 A2989 RMK A01 T03820147  RH  025%=      5-min Rain = 0
KLO1 182145Z 18013KT 38/15 A2989 RMK A01 T03810145  RH  025%=      5-min Rain = 0
KLO1 182146Z 19012KT 38/15 A2989 RMK A01 T03810145  RH  025%=      5-min Rain = 0
KLO1 182147Z 19013KT 38/15 A2989 RMK A01 T03810147  RH  025%=      5-min Rain = 0
KLO1 182148Z 19013KT 38/15 A2989 RMK A01 T03800149  RH  026%=      5-min Rain = 0
KLO1 182149Z 17011KT 38/15 A2989 RMK A01 T03790151  RH  026%=      5-min Rain = 0
KLO1 182150Z 15013G18KT 38/15 A2989 RMK A01 T03810151  RH  026%=      5-min Rain = 0
KLO1 182151Z 16016G21KT 38/15 A2989 RMK A01 T03840150  RH  025%=      5-min Rain = 0
KLO1 182152Z 17018KT 38/15 A2989 RMK A01 T03830150  RH  025%=      5-min Rain = 0
KLO1 182153Z 16018KT 38/15 A2989 RMK A01 T03800151  RH  026%=      5-min Rain = 0
KLO1 182154Z 16015KT 38/15 A2989 RMK A01 T03800150  RH  026%=      5-min Rain = 0
KLO1 182155Z 15018KT 38/15 A2989 RMK A01 T03790149  RH  026%=      5-min Rain = 0
KLO1 182156Z 16018KT 38/15 A2989 RMK A01 T03790147  RH  025%=      5-min Rain = 0
KLO1 182157Z 17015KT 38/15 A2989 RMK A01 T03790148  RH  026%=      5-min Rain = 0
KLO1 182158Z 19011KT 38/15 A2989 RMK A01 T03790146  RH  025%=      5-min Rain = 0
KLO1 182159Z 18011KT 38/15 A2989 RMK A01 T03820145  RH  025%=      5-min Rain = 0
KLO1 182200Z 19015KT 38/15 A2989 RMK A01 T03830147  RH  025%=      5-min Rain = 0
KLO1 182201Z 18014KT 38/15 A2989 RMK A01 T03830146  RH  025%=      5-min Rain = 0
KLO1 182202Z 19016KT 38/15 A2989 RMK A01 T03830145  RH  024%=      5-min Rain = 0
KLO1 182203Z 18012G19KT 38/14 A2989 RMK A01 T03820140  RH  024%=      5-min Rain = 0
KLO1 182204Z 19009KT 38/14 A2989 RMK A01 T03780141  RH  024%=      5-min Rain = 0
KLO1 182205Z 19012KT 38/14 A2989 RMK A01 T03770142  RH  025%=      5-min Rain = 0
KLO1 182206Z 18012KT 38/14 A2989 RMK A01 T03770144  RH  025%=      5-min Rain = 0
KLO1 182207Z 17010KT 38/14 A2989 RMK A01 T03780142  RH  025%=      5-min Rain = 0
KLO1 182208Z 17009KT 38/14 A2989 RMK A01 T03780141  RH  025%=      5-min Rain = 0
KLO1 182209Z 18015G21KT 38/14 A2988 RMK A01 T03780144  RH  025%=      5-min Rain = 0
KLO1 182210Z 19014KT 38/15 A2989 RMK A01 T03810145  RH  025%=      5-min Rain = 0
KLO1 182211Z 19013KT 38/15 A2989 RMK A01 T03800145  RH  025%=      5-min Rain = 0
KLO1 182212Z 20010KT 38/14 A2988 RMK A01 T03800142  RH  024%=      5-min Rain = 0
KLO1 182213Z 19011KT 38/14 A2988 RMK A01 T03800141  RH  024%=      5-min Rain = 0
KLO1 182214Z 19013G23KT 38/14 A2988 RMK A01 T03800143  RH  024%=      5-min Rain = 0
KLO1 182215Z 18018G23KT 38/14 A2988 RMK A01 T03820143  RH  024%=      5-min Rain = 0
KLO1 182216Z 18017KT 38/14 A2988 RMK A01 T03830139  RH  024%=      5-min Rain = 0
KLO1 182217Z 19015KT 38/14 A2988 RMK A01 T03810139  RH  024%=      5-min Rain = 0
KLO1 182218Z 19015KT 38/14 A2988 RMK A01 T03810139  RH  024%=      5-min Rain = 0
KLO1 182219Z 19014KT 38/14 A2988 RMK A01 T03800140  RH  024%=      5-min Rain = 0
KLO1 182220Z 18013KT 38/15 A2988 RMK A01 T03800145  RH  025%=      5-min Rain = 0
KLO1 182221Z 19012KT 38/14 A2988 RMK A01 T03800144  RH  025%=      5-min Rain = 0
KLO1 182222Z 18013KT 38/15 A2988 RMK A01 T03810146  RH  025%=      5-min Rain = 0
KLO1 182223Z 17016G21KT 38/15 A2988 RMK A01 T03800145  RH  025%=      5-min Rain = 0
KLO1 182224Z 18014KT 38/15 A2988 RMK A01 T03820147  RH  025%=      5-min Rain = 0
KLO1 182225Z 20016KT 39/15 A2988 RMK A01 T03850146  RH  024%=      5-min Rain = 0
KLO1 182226Z 20012KT 38/14 A2988 RMK A01 T03840141  RH  024%=      5-min Rain = 0
KLO1 182227Z 18011KT 38/14 A2988 RMK A01 T03830141  RH  024%=      5-min Rain = 0
KLO1 182228Z 17011KT 38/15 A2988 RMK A01 T03830145  RH  025%=      5-min Rain = 0
KLO1 182229Z 17017G23KT 38/15 A2988 RMK A01 T03830146  RH  025%=      5-min Rain = 0
KLO1 182230Z 17017KT 38/14 A2988 RMK A01 T03820144  RH  024%=      5-min Rain = 0
KLO1 182231Z 17017KT 38/14 A2988 RMK A01 T03800143  RH  025%=      5-min Rain = 0
KLO1 182232Z 17014KT 38/14 A2988 RMK A01 T03780142  RH  025%=      5-min Rain = 0
KLO1 182233Z 15018KT 38/14 A2988 RMK A01 T03790143  RH  025%=      5-min Rain = 0
KLO1 182234Z 16017KT 38/14 A2988 RMK A01 T03790142  RH  025%=      5-min Rain = 0
KLO1 182235Z 16016KT 38/14 A2988 RMK A01 T03790142  RH  024%=      5-min Rain = 0
KLO1 182236Z 17016KT 38/14 A2988 RMK A01 T03790141  RH  024%=      5-min Rain = 0
KLO1 182237Z 17014KT 38/14 A2988 RMK A01 T03790143  RH  025%=      5-min Rain = 0
KLO1 182238Z 16014G19KT 38/14 A2988 RMK A01 T03800143  RH  024%=      5-min Rain = 0
KLO1 182239Z 17014KT 38/14 A2987 RMK A01 T03810139  RH  024%=      5-min Rain = 0
KLO1 182240Z 17016G21KT 38/14 A2987 RMK A01 T03790139  RH  024%=      5-min Rain = 0
KLO1 182241Z 18018KT 38/14 A2987 RMK A01 T03810136  RH  023%=      5-min Rain = 0
KLO1 182242Z 18013G19KT 38/14 A2987 RMK A01 T03820139  RH  024%=      5-min Rain = 0
KLO1 182243Z 18019KT 39/14 A2987 RMK A01 T03850141  RH  024%=      5-min Rain = 0
KLO1 182244Z 18016KT 38/14 A2988 RMK A01 T03830138  RH  023%=      5-min Rain = 0
KLO1 182245Z 18012KT 38/14 A2988 RMK A01 T03810136  RH  023%=      5-min Rain = 0
KLO1 182246Z 20014KT 38/14 A2987 RMK A01 T03810137  RH  023%=      5-min Rain = 0
KLO1 182247Z 18011KT 38/14 A2987 RMK A01 T03810136  RH  023%=      5-min Rain = 0
KLO1 182248Z 19012KT 38/14 A2987 RMK A01 T03810140  RH  024%=      5-min Rain = 0
KLO1 182249Z 17016KT 38/14 A2987 RMK A01 T03810142  RH  024%=      5-min Rain = 0
KLO1 182250Z 17014G19KT 38/14 A2987 RMK A01 T03810141  RH  024%=      5-min Rain = 0
KLO1 182251Z 19018KT 38/14 A2987 RMK A01 T03800142  RH  024%=      5-min Rain = 0
KLO1 182252Z 19018KT 38/14 A2987 RMK A01 T03790140  RH  024%=      5-min Rain = 0
KLO1 182253Z 19018KT 38/14 A2987 RMK A01 T03790140  RH  024%=      5-min Rain = 0
KLO1 182254Z 18015G20KT 38/14 A2987 RMK A01 T03790136  RH  024%=      5-min Rain = 0
KLO1 182255Z 19015KT 38/14 A2987 RMK A01 T03780139  RH  024%=      5-min Rain = 0
KLO1 182256Z 19012KT 38/14 A2987 RMK A01 T03790137  RH  024%=      5-min Rain = 0
KLO1 182257Z 18013KT 38/14 A2987 RMK A01 T03790136  RH  024%=      5-min Rain = 0
KLO1 182258Z 19018KT 38/14 A2987 RMK A01 T03790137  RH  024%=      5-min Rain = 0
KLO1 182259Z 18018KT 38/14 A2987 RMK A01 T03790138  RH  024%=      5-min Rain = 0
KLO1 182300Z 18015KT 38/14 A2987 RMK A01 T03800136  RH  023%=      5-min Rain = 0
KLO1 182301Z 19013KT 38/13 A2987 RMK A01 T03800134  RH  023%=      5-min Rain = 0
KLO1 182302Z 19010KT 38/14 A2987 RMK A01 T03780135  RH  024%=      5-min Rain = 0
KLO1 182303Z 18012G17KT 38/14 A2987 RMK A01 T03780137  RH  024%=      5-min Rain = 0
KLO1 182304Z 18014KT 38/14 A2987 RMK A01 T03780144  RH  025%=      5-min Rain = 0
KLO1 182305Z 18015KT 38/14 A2987 RMK A01 T03790144  RH  025%=      5-min Rain = 0
KLO1 182306Z 16016KT 38/14 A2987 RMK A01 T03780142  RH  025%=      5-min Rain = 0
KLO1 182307Z 15018KT 38/14 A2987 RMK A01 T03790140  RH  024%=      5-min Rain = 0
KLO1 182308Z 16017KT 38/14 A2987 RMK A01 T03790143  RH  025%=      5-min Rain = 0
KLO1 182309Z 16014KT 38/14 A2987 RMK A01 T03790143  RH  025%=      5-min Rain = 0
KLO1 182310Z 16015KT 38/14 A2987 RMK A01 T03800143  RH  025%=      5-min Rain = 0
KLO1 182311Z 16014KT 38/14 A2987 RMK A01 T03790144  RH  025%=      5-min Rain = 0
KLO1 182312Z 16011G16KT 38/14 A2986 RMK A01 T03790143  RH  025%=      5-min Rain = 0
KLO1 182313Z 17019KT 38/14 A2986 RMK A01 T03780143  RH  025%=      5-min Rain = 0
KLO1 182314Z 18018KT 38/14 A2986 RMK A01 T03800143  RH  025%=      5-min Rain = 0
KLO1 182315Z 18015KT 38/14 A2987 RMK A01 T03810142  RH  024%=      5-min Rain = 0
KLO1 182316Z 18012KT 38/14 A2986 RMK A01 T03790142  RH  024%=      5-min Rain = 0
KLO1 182317Z 19012KT 38/14 A2986 RMK A01 T03780144  RH  025%=      5-min Rain = 0
KLO1 182318Z 18011KT 38/14 A2986 RMK A01 T03770144  RH  025%=      5-min Rain = 0
KLO1 182319Z 18013KT 38/15 A2986 RMK A01 T03770147  RH  026%=      5-min Rain = 0
KLO1 182320Z 16015G20KT 38/15 A2986 RMK A01 T03760149  RH  026%=      5-min Rain = 0
KLO1 182321Z 17019G25KT 38/15 A2986 RMK A01 T03750147  RH  026%=      5-min Rain = 0
KLO1 182322Z 17018KT 38/15 A2986 RMK A01 T03760145  RH  025%=      5-min Rain = 0
KLO1 182323Z 17017KT 38/14 A2986 RMK A01 T03770144  RH  025%=      5-min Rain = 0
KLO1 182324Z 17017KT 38/15 A2986 RMK A01 T03770147  RH  026%=      5-min Rain = 0
KLO1 182325Z 16016KT 38/15 A2986 RMK A01 T03760146  RH  026%=      5-min Rain = 0
KLO1 182326Z 17013KT 38/15 A2986 RMK A01 T03750146  RH  026%=      5-min Rain = 0
KLO1 182327Z 18013KT 37/14 A2986 RMK A01 T03740143  RH  025%=      5-min Rain = 0
KLO1 182328Z 18014KT 38/14 A2986 RMK A01 T03750144  RH  025%=      5-min Rain = 0
KLO1 182329Z 18015KT 38/15 A2986 RMK A01 T03760147  RH  026%=      5-min Rain = 0
KLO1 182330Z 19019KT 38/15 A2986 RMK A01 T03760148  RH  026%=      5-min Rain = 0
KLO1 182331Z 18019KT 38/15 A2986 RMK A01 T03750146  RH  026%=      5-min Rain = 0
KLO1 182332Z 18017KT 37/15 A2986 RMK A01 T03740149  RH  026%=      5-min Rain = 0
KLO1 182333Z 18015KT 37/15 A2986 RMK A01 T03730150  RH  027%=      5-min Rain = 0
KLO1 182334Z 19016KT 37/15 A2986 RMK A01 T03730149  RH  027%=      5-min Rain = 0
KLO1 182335Z 18017KT 37/15 A2986 RMK A01 T03720149  RH  027%=      5-min Rain = 0
KLO1 182336Z 17012KT 37/15 A2986 RMK A01 T03730149  RH  027%=      5-min Rain = 0
KLO1 182337Z 17014KT 38/15 A2986 RMK A01 T03760149  RH  026%=      5-min Rain = 0
KLO1 182338Z 16016G21KT 38/15 A2986 RMK A01 T03760152  RH  027%=      5-min Rain = 0
KLO1 182339Z 17013KT 37/15 A2986 RMK A01 T03730152  RH  027%=      5-min Rain = 0
KLO1 182340Z 18015KT 37/15 A2986 RMK A01 T03730150  RH  027%=      5-min Rain = 0
KLO1 182341Z 19015KT 37/15 A2986 RMK A01 T03740148  RH  026%=      5-min Rain = 0
KLO1 182342Z 19011KT 37/15 A2986 RMK A01 T03740148  RH  026%=      5-min Rain = 0
KLO1 182343Z 19013KT 38/15 A2986 RMK A01 T03760148  RH  026%=      5-min Rain = 0
KLO1 182344Z 18014KT 37/15 A2986 RMK A01 T03740146  RH  026%=      5-min Rain = 0
KLO1 182345Z 18015KT 37/15 A2986 RMK A01 T03730149  RH  027%=      5-min Rain = 0
KLO1 182346Z 19015KT 37/15 A2986 RMK A01 T03730154  RH  028%=      5-min Rain = 0
KLO1 182347Z 18019KT 37/15 A2986 RMK A01 T03720154  RH  028%=      5-min Rain = 0
KLO1 182348Z 18017KT 37/15 A2986 RMK A01 T03700151  RH  027%=      5-min Rain = 0
KLO1 182349Z 17012KT 37/15 A2986 RMK A01 T03690152  RH  028%=      5-min Rain = 0
KLO1 182350Z 16013KT 37/15 A2986 RMK A01 T03690152  RH  028%=      5-min Rain = 0
KLO1 182351Z 16014G19KT 37/15 A2986 RMK A01 T03700152  RH  027%=      5-min Rain = 0
KLO1 182352Z 17017KT 37/15 A2986 RMK A01 T03700153  RH  028%=      5-min Rain = 0
KLO1 182353Z 17019KT 37/15 A2986 RMK A01 T03700154  RH  028%=      5-min Rain = 0
KLO1 182354Z 17017KT 37/16 A2986 RMK A01 T03690155  RH  028%=      5-min Rain = 0
KLO1 182355Z 17016KT 37/16 A2986 RMK A01 T03680155  RH  028%=      5-min Rain = 0
KLO1 182356Z 16013KT 37/16 A2986 RMK A01 T03680155  RH  028%=      5-min Rain = 0
KLO1 182357Z 17011G16KT 37/16 A2986 RMK A01 T03700157  RH  028%=      5-min Rain = 0
KLO1 182358Z 17014KT 37/16 A2986 RMK A01 T03720157  RH  028%=      5-min Rain = 0
KLO1 182359Z 18015KT 37/16 A2986 RMK A01 T03720157  RH  028%=      5-min Rain = 0
KLO1 190000Z 18016KT 37/16 A2986 RMK A01 T03700155  RH  028%=      5-min Rain = 0
KLO1 190001Z 17017KT 37/16 A2986 RMK A01 T03690155  RH  028%=      5-min Rain = 0
KLO1 190002Z 17019KT 37/15 A2987 RMK A01 T03680154  RH  028%=      5-min Rain = 0
KLO1 190003Z 18016KT 37/15 A2987 RMK A01 T03690154  RH  028%=      5-min Rain = 0
KLO1 190004Z 18017KT 37/15 A2986 RMK A01 T03670154  RH  028%=      5-min Rain = 0
KLO1 190005Z 17017KT 37/15 A2987 RMK A01 T03670153  RH  028%=      5-min Rain = 0
KLO1 190006Z 17017KT 37/15 A2987 RMK A01 T03660153  RH  028%=      5-min Rain = 0
KLO1 190007Z 17017KT 37/15 A2987 RMK A01 T03650153  RH  029%=      5-min Rain = 0
KLO1 190008Z 17018KT 37/15 A2987 RMK A01 T03650154  RH  029%=      5-min Rain = 0
KLO1 190009Z 17015KT 37/15 A2987 RMK A01 T03660154  RH  029%=      5-min Rain = 0
KLO1 190010Z 16014KT 37/15 A2987 RMK A01 T03660154  RH  028%=      5-min Rain = 0
KLO1 190011Z 16017G22KT 37/15 A2987 RMK A01 T03660154  RH  029%=      5-min Rain = 0
KLO1 190012Z 16019KT 37/16 A2987 RMK A01 T03670155  RH  029%=      5-min Rain = 0
KLO1 190013Z 17019KT 37/16 A2987 RMK A01 T03660155  RH  029%=      5-min Rain = 0
KLO1 190014Z 16018KT 37/15 A2987 RMK A01 T03660154  RH  029%=      5-min Rain = 0
KLO1 190015Z 16016KT 37/16 A2987 RMK A01 T03650155  RH  029%=      5-min Rain = 0
KLO1 190016Z 15016KT 37/16 A2987 RMK A01 T03650155  RH  029%=      5-min Rain = 0
KLO1 190017Z 15017KT 37/16 A2987 RMK A01 T03650155  RH  029%=      5-min Rain = 0
KLO1 190018Z 15016KT 37/15 A2987 RMK A01 T03660154  RH  029%=      5-min Rain = 0
KLO1 190019Z 15015KT 37/16 A2987 RMK A01 T03650155  RH  029%=      5-min Rain = 0
KLO1 190020Z 15016KT 37/16 A2987 RMK A01 T03650157  RH  029%=      5-min Rain = 0
KLO1 190021Z 17017KT 37/16 A2987 RMK A01 T03650157  RH  029%=      5-min Rain = 0
KLO1 190022Z 17017KT 37/16 A2987 RMK A01 T03660155  RH  029%=      5-min Rain = 0
KLO1 190023Z 17018KT 37/15 A2987 RMK A01 T03660153  RH  028%=      5-min Rain = 0
KLO1 190024Z 17016KT 37/15 A2987 RMK A01 T03650152  RH  028%=      5-min Rain = 0
KLO1 190025Z 17017KT 37/15 A2987 RMK A01 T03650151  RH  028%=      5-min Rain = 0
KLO1 190026Z 17015KT 36/15 A2987 RMK A01 T03640151  RH  028%=      5-min Rain = 0
KLO1 190027Z 17018KT 36/15 A2987 RMK A01 T03640153  RH  029%=      5-min Rain = 0
KLO1 190028Z 17019KT 36/15 A2987 RMK A01 T03640154  RH  029%=      5-min Rain = 0
KLO1 190029Z 17017KT 36/15 A2987 RMK A01 T03630154  RH  029%=      5-min Rain = 0
KLO1 190030Z 18019G24KT 36/16 A2987 RMK A01 T03630155  RH  029%=      5-min Rain = 0
KLO1 190031Z 18019KT 36/16 A2987 RMK A01 T03630156  RH  029%=      5-min Rain = 0
KLO1 190032Z 17017KT 36/16 A2987 RMK A01 T03630155  RH  029%=      5-min Rain = 0
KLO1 190033Z 17017KT 36/15 A2987 RMK A01 T03630154  RH  029%=      5-min Rain = 0
KLO1 190034Z 17015KT 36/15 A2987 RMK A01 T03630153  RH  029%=      5-min Rain = 0
KLO1 190035Z 17016KT 36/15 A2987 RMK A01 T03630154  RH  029%=      5-min Rain = 0
KLO1 190036Z 18016KT 36/15 A2987 RMK A01 T03630154  RH  029%=      5-min Rain = 0
KLO1 190037Z 17013KT 36/15 A2987 RMK A01 T03620154  RH  029%=      5-min Rain = 0
KLO1 190038Z 16016KT 36/16 A2987 RMK A01 T03630156  RH  029%=      5-min Rain = 0
KLO1 190039Z 15015KT 36/16 A2987 RMK A01 T03620155  RH  029%=      5-min Rain = 0
KLO1 190040Z 16019KT 36/16 A2987 RMK A01 T03620156  RH  029%=      5-min Rain = 0
KLO1 190041Z 17016KT 36/16 A2987 RMK A01 T03610156  RH  030%=      5-min Rain = 0
KLO1 190042Z 17018KT 36/16 A2987 RMK A01 T03610155  RH  030%=      5-min Rain = 0
KLO1 190043Z 17016KT 36/16 A2987 RMK A01 T03610155  RH  029%=      5-min Rain = 0
KLO1 190044Z 17017G22KT 36/16 A2987 RMK A01 T03610156  RH  030%=      5-min Rain = 0
KLO1 190045Z 17017KT 36/16 A2987 RMK A01 T03610156  RH  030%=      5-min Rain = 0
KLO1 190046Z 17018KT 36/16 A2987 RMK A01 T03610156  RH  030%=      5-min Rain = 0
KLO1 190047Z 17019KT 36/16 A2987 RMK A01 T03600156  RH  030%=      5-min Rain = 0
KLO1 190048Z 16016KT 36/16 A2987 RMK A01 T03590156  RH  030%=      5-min Rain = 0
KLO1 190049Z 16014KT 36/16 A2987 RMK A01 T03590157  RH  030%=      5-min Rain = 0
KLO1 190050Z 16013KT 36/16 A2987 RMK A01 T03590158  RH  030%=      5-min Rain = 0
KLO1 190051Z 16016KT 36/16 A2987 RMK A01 T03590158  RH  030%=      5-min Rain = 0
KLO1 190052Z 16015KT 36/16 A2987 RMK A01 T03590157  RH  030%=      5-min Rain = 0
KLO1 190053Z 16016G21KT 36/16 A2987 RMK A01 T03590158  RH  030%=      5-min Rain = 0
KLO1 190054Z 16016KT 36/16 A2987 RMK A01 T03590158  RH  030%=      5-min Rain = 0
KLO1 190055Z 16016KT 36/16 A2987 RMK A01 T03580158  RH  031%=      5-min Rain = 0
KLO1 190056Z 16016KT 36/16 A2987 RMK A01 T03580158  RH  031%=      5-min Rain = 0
KLO1 190057Z 16015KT 36/16 A2987 RMK A01 T03570158  RH  031%=      5-min Rain = 0
KLO1 190058Z 16017KT 36/16 A2987 RMK A01 T03560158  RH  031%=      5-min Rain = 0
KLO1 190059Z 17017KT 36/16 A2987 RMK A01 T03560158  RH  031%=      5-min Rain = 0
KLO1 190100Z 17017G22KT 36/16 A2987 RMK A01 T03560157  RH  031%=      5-min Rain = 0
KLO1 190101Z 17019KT 36/16 A2987 RMK A01 T03560158  RH  031%=      5-min Rain = 0
KLO1 190102Z 16018KT 36/16 A2987 RMK A01 T03550158  RH  031%=      5-min Rain = 0
KLO1 190103Z 16019KT 36/16 A2987 RMK A01 T03550159  RH  031%=      5-min Rain = 0
KLO1 190104Z 16018KT 35/16 A2987 RMK A01 T03540159  RH  031%=      5-min Rain = 0
KLO1 190105Z 17019KT 35/16 A2987 RMK A01 T03540159  RH  031%=      5-min Rain = 0
KLO1 190106Z 16018KT 35/16 A2987 RMK A01 T03540159  RH  031%=      5-min Rain = 0
KLO1 190107Z 16020KT 35/16 A2987 RMK A01 T03540158  RH  031%=      5-min Rain = 0
KLO1 190108Z 17019KT 35/16 A2987 RMK A01 T03530158  RH  031%=      5-min Rain = 0
KLO1 190109Z 17018KT 35/16 A2987 RMK A01 T03530158  RH  031%=      5-min Rain = 0
KLO1 190110Z 17017KT 35/16 A2987 RMK A01 T03530158  RH  031%=      5-min Rain = 0
KLO1 190111Z 17018KT 35/16 A2987 RMK A01 T03530158  RH  031%=      5-min Rain = 0
KLO1 190112Z 17018KT 35/16 A2987 RMK A01 T03530158  RH  031%=      5-min Rain = 0
KLO1 190113Z 17015G20KT 35/16 A2987 RMK A01 T03530158  RH  031%=      5-min Rain = 0
KLO1 190114Z 16013KT 35/16 A2988 RMK A01 T03530159  RH  032%=      5-min Rain = 0
KLO1 190115Z 16015KT 35/16 A2987 RMK A01 T03520159  RH  032%=      5-min Rain = 0
KLO1 190116Z 17017KT 35/16 A2987 RMK A01 T03520158  RH  032%=      5-min Rain = 0
KLO1 190117Z 16018KT 35/16 A2987 RMK A01 T03510158  RH  032%=      5-min Rain = 0
KLO1 190118Z 17019KT 35/16 A2987 RMK A01 T03510157  RH  032%=      5-min Rain = 0
KLO1 190119Z 17018KT 35/16 A2987 RMK A01 T03510157  RH  032%=      5-min Rain = 0
KLO1 190120Z 16018KT 35/16 A2987 RMK A01 T03510157  RH  032%=      5-min Rain = 0
KLO1 190121Z 16017KT 35/16 A2987 RMK A01 T03500157  RH  032%=      5-min Rain = 0
KLO1 190122Z 16016G21KT 35/16 A2987 RMK A01 T03500157  RH  032%=      5-min Rain = 0
KLO1 190123Z 16018KT 35/16 A2987 RMK A01 T03500157  RH  032%=      5-min Rain = 0
KLO1 190124Z 16019KT 35/16 A2987 RMK A01 T03500157  RH  032%=      5-min Rain = 0
KLO1 190125Z 16020KT 35/16 A2987 RMK A01 T03490156  RH  032%=      5-min Rain = 0
KLO1 190126Z 16019KT 35/16 A2987 RMK A01 T03490156  RH  032%=      5-min Rain = 0
KLO1 190127Z 17016KT 35/16 A2987 RMK A01 T03490157  RH  032%=      5-min Rain = 0
KLO1 190128Z 16017KT 35/16 A2987 RMK A01 T03490156  RH  032%=      5-min Rain = 0
KLO1 190129Z 16017KT 35/16 A2987 RMK A01 T03480157  RH  032%=      5-min Rain = 0
KLO1 190130Z 17017KT 35/16 A2987 RMK A01 T03480156  RH  032%=      5-min Rain = 0
KLO1 190131Z 17017KT 35/16 A2987 RMK A01 T03480156  RH  032%=      5-min Rain = 0
KLO1 190132Z 17017KT 35/16 A2987 RMK A01 T03470156  RH  032%=      5-min Rain = 0
KLO1 190133Z 16018KT 35/16 A2987 RMK A01 T03470156  RH  032%=      5-min Rain = 0
KLO1 190134Z 16016KT 35/16 A2987 RMK A01 T03470156  RH  032%=      5-min Rain = 0
KLO1 190135Z 16016KT 35/16 A2987 RMK A01 T03460156  RH  032%=      5-min Rain = 0
KLO1 190136Z 16014KT 35/16 A2987 RMK A01 T03460156  RH  032%=      5-min Rain = 0
KLO1 190137Z 16013KT 35/16 A2987 RMK A01 T03450157  RH  032%=      5-min Rain = 0
KLO1 190138Z 16013KT 34/16 A2987 RMK A01 T03440157  RH  033%=      5-min Rain = 0
KLO1 190139Z 16014KT 34/16 A2987 RMK A01 T03440156  RH  033%=      5-min Rain = 0
KLO1 190140Z 16012KT 34/16 A2987 RMK A01 T03430157  RH  033%=      5-min Rain = 0
KLO1 190141Z 16016KT 34/16 A2987 RMK A01 T03430156  RH  033%=      5-min Rain = 0
KLO1 190142Z 16015KT 34/16 A2987 RMK A01 T03430156  RH  033%=      5-min Rain = 0
KLO1 190143Z 17016KT 34/16 A2987 RMK A01 T03430155  RH  033%=      5-min Rain = 0
KLO1 190144Z 16015KT 34/16 A2987 RMK A01 T03430156  RH  033%=      5-min Rain = 0
KLO1 190145Z 16016KT 34/16 A2987 RMK A01 T03430156  RH  033%=      5-min Rain = 0
KLO1 190146Z 16017KT 34/16 A2987 RMK A01 T03420156  RH  033%=      5-min Rain = 0
KLO1 190147Z 16016KT 34/16 A2987 RMK A01 T03420157  RH  033%=      5-min Rain = 0
KLO1 190148Z 16015KT 34/16 A2987 RMK A01 T03420157  RH  033%=      5-min Rain = 0
KLO1 190149Z 16017KT 34/16 A2987 RMK A01 T03410157  RH  033%=      5-min Rain = 0
KLO1 190150Z 17016KT 34/16 A2987 RMK A01 T03410157  RH  033%=      5-min Rain = 0
KLO1 190151Z 16014KT 34/16 A2987 RMK A01 T03410157  RH  033%=      5-min Rain = 0
KLO1 190152Z 16016KT 34/16 A2987 RMK A01 T03400157  RH  033%=      5-min Rain = 0
KLO1 190153Z 16016KT 34/16 A2987 RMK A01 T03400156  RH  033%=      5-min Rain = 0
KLO1 190154Z 16016KT 34/16 A2987 RMK A01 T03400157  RH  034%=      5-min Rain = 0
KLO1 190155Z 16017KT 34/16 A2987 RMK A01 T03400157  RH  033%=      5-min Rain = 0
KLO1 190156Z 16017KT 34/16 A2987 RMK A01 T03390157  RH  033%=      5-min Rain = 0
KLO1 190157Z 16016KT 34/16 A2988 RMK A01 T03390156  RH  033%=      5-min Rain = 0
KLO1 190158Z 16015KT 34/16 A2988 RMK A01 T03390156  RH  033%=      5-min Rain = 0
KLO1 190159Z 16016KT 34/16 A2988 RMK A01 T03390156  RH  034%=      5-min Rain = 0
KLO1 190200Z 16014KT 34/16 A2988 RMK A01 T03390156  RH  034%=      5-min Rain = 0
KLO1 190201Z 16013KT 34/16 A2988 RMK A01 T03380156  RH  034%=      5-min Rain = 0
KLO1 190202Z 16015KT 34/16 A2988 RMK A01 T03380156  RH  034%=      5-min Rain = 0
KLO1 190203Z 16012KT 34/16 A2988 RMK A01 T03370156  RH  034%=      5-min Rain = 0
KLO1 190204Z 16012KT 34/16 A2988 RMK A01 T03370157  RH  034%=      5-min Rain = 0
KLO1 190205Z 16013KT 34/16 A2988 RMK A01 T03360157  RH  034%=      5-min Rain = 0
KLO1 190206Z 16014KT 34/16 A2988 RMK A01 T03360157  RH  034%=      5-min Rain = 0
KLO1 190207Z 16012KT 34/16 A2988 RMK A01 T03360157  RH  034%=      5-min Rain = 0
KLO1 190208Z 16012KT 34/16 A2988 RMK A01 T03350157  RH  034%=      5-min Rain = 0
KLO1 190209Z 16012KT 34/16 A2988 RMK A01 T03350158  RH  035%=      5-min Rain = 0
KLO1 190210Z 17011KT 33/16 A2988 RMK A01 T03340157  RH  035%=      5-min Rain = 0
KLO1 190211Z 17012KT 33/16 A2988 RMK A01 T03340158  RH  035%=      5-min Rain = 0
KLO1 190212Z 16013KT 33/16 A2988 RMK A01 T03340158  RH  035%=      5-min Rain = 0
KLO1 190213Z 17011KT 33/16 A2988 RMK A01 T03340158  RH  035%=      5-min Rain = 0
KLO1 190214Z 16011KT 33/16 A2988 RMK A01 T03340157  RH  035%=      5-min Rain = 0
KLO1 190215Z 16012KT 33/16 A2988 RMK A01 T03340157  RH  035%=      5-min Rain = 0
KLO1 190216Z 17011KT 33/16 A2988 RMK A01 T03330157  RH  035%=      5-min Rain = 0
KLO1 190217Z 16011KT 33/16 A2989 RMK A01 T03340158  RH  035%=      5-min Rain = 0
KLO1 190218Z 16012KT 33/16 A2988 RMK A01 T03330157  RH  035%=      5-min Rain = 0
KLO1 190219Z 17012KT 33/16 A2989 RMK A01 T03330158  RH  035%=      5-min Rain = 0
KLO1 190220Z 17011KT 33/16 A2989 RMK A01 T03330158  RH  035%=      5-min Rain = 0
KLO1 190221Z 17010KT 33/16 A2989 RMK A01 T03320158  RH  035%=      5-min Rain = 0
KLO1 190222Z 17013KT 33/16 A2989 RMK A01 T03320158  RH  035%=      5-min Rain = 0
KLO1 190223Z 16010KT 33/16 A2989 RMK A01 T03320158  RH  035%=      5-min Rain = 0
KLO1 190224Z 17011KT 33/16 A2989 RMK A01 T03320158  RH  035%=      5-min Rain = 0
KLO1 190225Z 17011KT 33/16 A2989 RMK A01 T03320158  RH  035%=      5-min Rain = 0
KLO1 190226Z 17011KT 33/16 A2989 RMK A01 T03310158  RH  035%=      5-min Rain = 0
KLO1 190227Z 17011KT 33/16 A2989 RMK A01 T03310158  RH  035%=      5-min Rain = 0
KLO1 190228Z 17011KT 33/16 A2989 RMK A01 T03310158  RH  035%=      5-min Rain = 0
KLO1 190229Z 17011KT 33/16 A2989 RMK A01 T03310158  RH  035%=      5-min Rain = 0
KLO1 190230Z 17010KT 33/16 A2989 RMK A01 T03310157  RH  035%=      5-min Rain = 0
KLO1 190231Z 17013KT 33/16 A2989 RMK A01 T03310157  RH  035%=      5-min Rain = 0
KLO1 190232Z 17012KT 33/16 A2989 RMK A01 T03310157  RH  035%=      5-min Rain = 0
KLO1 190233Z 17010KT 33/16 A2989 RMK A01 T03310157  RH  035%=      5-min Rain = 0
KLO1 190234Z 17013KT 33/16 A2989 RMK A01 T03300157  RH  035%=      5-min Rain = 0
KLO1 190235Z 17010KT 33/16 A2989 RMK A01 T03300157  RH  035%=      5-min Rain = 0
KLO1 190236Z 17012KT 33/16 A2989 RMK A01 T03300157  RH  036%=      5-min Rain = 0
KLO1 190237Z 17013KT 33/16 A2989 RMK A01 T03290157  RH  036%=      5-min Rain = 0
KLO1 190238Z 17013KT 33/16 A2989 RMK A01 T03290157  RH  035%=      5-min Rain = 0
KLO1 190239Z 17013KT 33/16 A2989 RMK A01 T03290157  RH  035%=      5-min Rain = 0
KLO1 190240Z 17010KT 33/16 A2989 RMK A01 T03290157  RH  035%=      5-min Rain = 0
KLO1 190241Z 17013KT 33/16 A2989 RMK A01 T03300157  RH  036%=      5-min Rain = 0
KLO1 190242Z 17013KT 33/16 A2989 RMK A01 T03290157  RH  036%=      5-min Rain = 0
KLO1 190243Z 17012KT 33/16 A2989 RMK A01 T03290157  RH  036%=      5-min Rain = 0
KLO1 190244Z 17012KT 33/16 A2989 RMK A01 T03290157  RH  036%=      5-min Rain = 0
KLO1 190245Z 17011KT 33/16 A2989 RMK A01 T03290157  RH  036%=      5-min Rain = 0
KLO1 190246Z 17013KT 33/16 A2989 RMK A01 T03280157  RH  036%=      5-min Rain = 0
KLO1 190247Z 17011KT 33/16 A2989 RMK A01 T03280157  RH  036%=      5-min Rain = 0
KLO1 190248Z 16010KT 33/16 A299 RMK A01 T03280157  RH  036%=      5-min Rain = 0
KLO1 190249Z 17011KT 33/16 A299 RMK A01 T03270157  RH  036%=      5-min Rain = 0
KLO1 190250Z 17010KT 33/16 A299 RMK A01 T03270157  RH  036%=      5-min Rain = 0
KLO1 190251Z 16012KT 33/16 A299 RMK A01 T03260157  RH  036%=      5-min Rain = 0
KLO1 190252Z 16011KT 33/16 A299 RMK A01 T03260157  RH  036%=      5-min Rain = 0
KLO1 190253Z 17011KT 33/16 A299 RMK A01 T03260157  RH  036%=      5-min Rain = 0
KLO1 190254Z 17012KT 33/16 A299 RMK A01 T03260157  RH  036%=      5-min Rain = 0
KLO1 190255Z 17012KT 33/16 A299 RMK A01 T03260157  RH  036%=      5-min Rain = 0
KLO1 190256Z 16011KT 33/16 A299 RMK A01 T03250157  RH  036%=      5-min Rain = 0
KLO1 190257Z 17011KT 33/16 A299 RMK A01 T03250157  RH  036%=      5-min Rain = 0
KLO1 190258Z 16011KT 33/16 A299 RMK A01 T03250157  RH  036%=      5-min Rain = 0
KLO1 190259Z 17011KT 33/16 A299 RMK A01 T03250157  RH  037%=      5-min Rain = 0
KLO1 190300Z 16011KT 32/16 A299 RMK A01 T03240157  RH  037%=      5-min Rain = 0
KLO1 190301Z 17012KT 32/16 A299 RMK A01 T03240157  RH  037%=      5-min Rain = 0
KLO1 190302Z 16012KT 32/16 A299 RMK A01 T03240158  RH  037%=      5-min Rain = 0
KLO1 190303Z 16011KT 32/16 A299 RMK A01 T03240158  RH  037%=      5-min Rain = 0
KLO1 190304Z 16010KT 32/16 A299 RMK A01 T03230158  RH  037%=      5-min Rain = 0
KLO1 190305Z 16012KT 32/16 A299 RMK A01 T03230158  RH  037%=      5-min Rain = 0
KLO1 190306Z 16012KT 32/16 A299 RMK A01 T03230158  RH  037%=      5-min Rain = 0
KLO1 190307Z 16010KT 32/16 A299 RMK A01 T03220158  RH  037%=      5-min Rain = 0
KLO1 190308Z 16011KT 32/16 A299 RMK A01 T03220158  RH  037%=      5-min Rain = 0
KLO1 190309Z 16011KT 32/16 A299 RMK A01 T03210158  RH  037%=      5-min Rain = 0
KLO1 190310Z 16011KT 32/16 A299 RMK A01 T03210158  RH  038%=      5-min Rain = 0
KLO1 190311Z 16011KT 32/16 A299 RMK A01 T03200158  RH  038%=      5-min Rain = 0
KLO1 190312Z 16010KT 32/16 A2991 RMK A01 T03200159  RH  038%=      5-min Rain = 0
KLO1 190313Z 16010KT 32/16 A2991 RMK A01 T03200158  RH  038%=      5-min Rain = 0
KLO1 190314Z 16010KT 32/16 A2991 RMK A01 T03190158  RH  038%=      5-min Rain = 0
KLO1 190315Z 16011KT 32/16 A2991 RMK A01 T03190159  RH  038%=      5-min Rain = 0
KLO1 190316Z 16012KT 32/16 A2991 RMK A01 T03180159  RH  038%=      5-min Rain = 0
KLO1 190317Z 16011KT 32/16 A2991 RMK A01 T03190159  RH  038%=      5-min Rain = 0
KLO1 190318Z 16011KT 32/16 A2991 RMK A01 T03180159  RH  038%=      5-min Rain = 0
KLO1 190319Z 16011KT 32/16 A2991 RMK A01 T03180159  RH  038%=      5-min Rain = 0
KLO1 190320Z 16012KT 32/16 A2991 RMK A01 T03180159  RH  038%=      5-min Rain = 0
KLO1 190321Z 16011KT 32/16 A2991 RMK A01 T03170159  RH  038%=      5-min Rain = 0
KLO1 190322Z 16012KT 32/16 A2991 RMK A01 T03170159  RH  038%=      5-min Rain = 0
KLO1 190323Z 16012KT 32/16 A2991 RMK A01 T03170159  RH  039%=      5-min Rain = 0
KLO1 190324Z 16011KT 32/16 A2991 RMK A01 T03170159  RH  039%=      5-min Rain = 0
KLO1 190325Z 16012KT 32/16 A2991 RMK A01 T03170159  RH  039%=      5-min Rain = 0
KLO1 190326Z 16012KT 32/16 A2991 RMK A01 T03170158  RH  039%=      5-min Rain = 0
KLO1 190327Z 16014KT 32/16 A2991 RMK A01 T03170158  RH  039%=      5-min Rain = 0
KLO1 190328Z 16013KT 32/16 A2991 RMK A01 T03170158  RH  038%=      5-min Rain = 0
KLO1 190329Z 16013KT 32/16 A2992 RMK A01 T03170158  RH  038%=      5-min Rain = 0
KLO1 190330Z 16012KT 32/16 A2992 RMK A01 T03170158  RH  038%=      5-min Rain = 0
KLO1 190331Z 16014KT 32/16 A2992 RMK A01 T03170158  RH  038%=      5-min Rain = 0
KLO1 190332Z 16012KT 32/16 A2992 RMK A01 T03160157  RH  038%=      5-min Rain = 0
KLO1 190333Z 17014KT 32/16 A2992 RMK A01 T03160157  RH  038%=      5-min Rain = 0
KLO1 190334Z 17014KT 32/16 A2992 RMK A01 T03160157  RH  038%=      5-min Rain = 0
KLO1 190335Z 16015KT 32/16 A2992 RMK A01 T03160157  RH  038%=      5-min Rain = 0
KLO1 190336Z 16014KT 32/16 A2992 RMK A01 T03160156  RH  038%=      5-min Rain = 0
KLO1 190337Z 16013KT 32/16 A2992 RMK A01 T03160156  RH  038%=      5-min Rain = 0
KLO1 190338Z 16012KT 32/16 A2992 RMK A01 T03160156  RH  038%=      5-min Rain = 0
KLO1 190339Z 16012KT 32/16 A2992 RMK A01 T03160157  RH  038%=      5-min Rain = 0
KLO1 190340Z 16014KT 32/16 A2992 RMK A01 T03150156  RH  038%=      5-min Rain = 0
KLO1 190341Z 16013KT 32/16 A2992 RMK A01 T03150156  RH  038%=      5-min Rain = 0
KLO1 190342Z 16014KT 32/16 A2992 RMK A01 T03150156  RH  038%=      5-min Rain = 0
KLO1 190343Z 16013KT 32/16 A2992 RMK A01 T03150156  RH  038%=      5-min Rain = 0
KLO1 190344Z 16014KT 32/16 A2992 RMK A01 T03150155  RH  038%=      5-min Rain = 0
KLO1 190345Z 16014KT 32/16 A2992 RMK A01 T03150155  RH  038%=      5-min Rain = 0
KLO1 190346Z 16013KT 32/16 A2992 RMK A01 T03150156  RH  038%=      5-min Rain = 0
KLO1 190347Z 16012KT 31/16 A2992 RMK A01 T03140155  RH  038%=      5-min Rain = 0
KLO1 190348Z 16012KT 31/16 A2992 RMK A01 T03140155  RH  038%=      5-min Rain = 0
KLO1 190349Z 16012KT 31/16 A2992 RMK A01 T03130155  RH  038%=      5-min Rain = 0
KLO1 190350Z 16013KT 31/16 A2992 RMK A01 T03130155  RH  038%=      5-min Rain = 0
KLO1 190351Z 16011KT 31/16 A2992 RMK A01 T03130155  RH  038%=      5-min Rain = 0
KLO1 190352Z 17015KT 31/16 A2992 RMK A01 T03130155  RH  038%=      5-min Rain = 0
KLO1 190353Z 16012KT 31/15 A2992 RMK A01 T03120154  RH  038%=      5-min Rain = 0
KLO1 190354Z 16013KT 31/15 A2992 RMK A01 T03120154  RH  038%=      5-min Rain = 0
KLO1 190355Z 16012KT 31/15 A2993 RMK A01 T03120154  RH  038%=      5-min Rain = 0
KLO1 190356Z 16013KT 31/16 A2993 RMK A01 T03130155  RH  039%=      5-min Rain = 0
KLO1 190357Z 16013KT 31/15 A2993 RMK A01 T03120154  RH  039%=      5-min Rain = 0
KLO1 190358Z 16013KT 31/15 A2993 RMK A01 T03120154  RH  039%=      5-min Rain = 0
KLO1 190359Z 16013KT 31/15 A2993 RMK A01 T03120154  RH  039%=      5-min Rain = 0
KLO1 190400Z 16012KT 31/15 A2993 RMK A01 T03120154  RH  039%=      5-min Rain = 0
KLO1 190401Z 16012KT 31/15 A2993 RMK A01 T03110154  RH  039%=      5-min Rain = 0
KLO1 190402Z 16013KT 31/15 A2993 RMK A01 T03110154  RH  039%=      5-min Rain = 0
KLO1 190403Z 16013KT 31/15 A2993 RMK A01 T03110154  RH  039%=      5-min Rain = 0
KLO1 190404Z 16013KT 31/15 A2993 RMK A01 T03100154  RH  039%=      5-min Rain = 0
KLO1 190405Z 16012KT 31/15 A2993 RMK A01 T03100154  RH  039%=      5-min Rain = 0
KLO1 190406Z 16012KT 31/15 A2993 RMK A01 T03100154  RH  039%=      5-min Rain = 0
KLO1 190407Z 17013KT 31/15 A2993 RMK A01 T03090153  RH  039%=      5-min Rain = 0
KLO1 190408Z 16013KT 31/15 A2993 RMK A01 T03090154  RH  039%=      5-min Rain = 0
KLO1 190409Z 16012KT 31/15 A2993 RMK A01 T03090153  RH  039%=      5-min Rain = 0
KLO1 190410Z 16013KT 31/15 A2993 RMK A01 T03090153  RH  039%=      5-min Rain = 0
KLO1 190411Z 16014KT 31/15 A2993 RMK A01 T03090153  RH  039%=      5-min Rain = 0
KLO1 190412Z 17011KT 31/15 A2993 RMK A01 T03090153  RH  039%=      5-min Rain = 0
KLO1 190413Z 16011KT 31/15 A2993 RMK A01 T03090153  RH  039%=      5-min Rain = 0
KLO1 190414Z 17014KT 31/15 A2993 RMK A01 T03080153  RH  039%=      5-min Rain = 0
KLO1 190415Z 16014KT 31/15 A2994 RMK A01 T03090153  RH  039%=      5-min Rain = 0
KLO1 190416Z 16011KT 31/15 A2994 RMK A01 T03090153  RH  039%=      5-min Rain = 0
KLO1 190417Z 16013KT 31/15 A2994 RMK A01 T03090152  RH  039%=      5-min Rain = 0
KLO1 190418Z 16013KT 31/15 A2994 RMK A01 T03090153  RH  039%=      5-min Rain = 0
KLO1 190419Z 17014KT 31/15 A2994 RMK A01 T03080152  RH  039%=      5-min Rain = 0
KLO1 190420Z 16012KT 31/15 A2994 RMK A01 T03080152  RH  039%=      5-min Rain = 0
KLO1 190421Z 16013KT 31/15 A2994 RMK A01 T03080153  RH  039%=      5-min Rain = 0
KLO1 190422Z 17012KT 31/15 A2994 RMK A01 T03080152  RH  039%=      5-min Rain = 0
KLO1 190423Z 17012KT 31/15 A2994 RMK A01 T03080152  RH  039%=      5-min Rain = 0
KLO1 190424Z 17011KT 31/15 A2994 RMK A01 T03080152  RH  039%=      5-min Rain = 0
KLO1 190425Z 17012KT 31/15 A2994 RMK A01 T03070152  RH  039%=      5-min Rain = 0
KLO1 190426Z 17012KT 31/15 A2994 RMK A01 T03070152  RH  039%=      5-min Rain = 0
KLO1 190427Z 17013KT 31/15 A2994 RMK A01 T03070152  RH  039%=      5-min Rain = 0
KLO1 190428Z 17012KT 31/15 A2994 RMK A01 T03070152  RH  039%=      5-min Rain = 0
KLO1 190429Z 17012KT 31/15 A2994 RMK A01 T03070152  RH  039%=      5-min Rain = 0
KLO1 190430Z 17012KT 31/15 A2994 RMK A01 T03070152  RH  039%=      5-min Rain = 0
KLO1 190431Z 17013KT 31/15 A2994 RMK A01 T03060151  RH  039%=      5-min Rain = 0
KLO1 190432Z 17013KT 31/15 A2994 RMK A01 T03060151  RH  039%=      5-min Rain = 0
KLO1 190433Z 17011KT 31/15 A2994 RMK A01 T03060151  RH  039%=      5-min Rain = 0
KLO1 190434Z 17011KT 31/15 A2994 RMK A01 T03060151  RH  039%=      5-min Rain = 0
KLO1 190435Z 17013KT 31/15 A2995 RMK A01 T03060150  RH  039%=      5-min Rain = 0
KLO1 190436Z 17013KT 31/15 A2995 RMK A01 T03060150  RH  039%=      5-min Rain = 0
KLO1 190437Z 16014KT 31/15 A2995 RMK A01 T03060150  RH  039%=      5-min Rain = 0
KLO1 190438Z 17013KT 31/15 A2995 RMK A01 T03060150  RH  039%=      5-min Rain = 0
KLO1 190439Z 17012KT 31/15 A2995 RMK A01 T03060150  RH  039%=      5-min Rain = 0
KLO1 190440Z 16012KT 31/15 A2995 RMK A01 T03060150  RH  039%=      5-min Rain = 0
KLO1 190441Z 17012KT 31/15 A2995 RMK A01 T03050149  RH  039%=      5-min Rain = 0
KLO1 190442Z 17012KT 31/15 A2995 RMK A01 T03050149  RH  039%=      5-min Rain = 0
KLO1 190443Z 17012KT 31/15 A2995 RMK A01 T03050149  RH  039%=      5-min Rain = 0
KLO1 190444Z 17012KT 31/15 A2995 RMK A01 T03050149  RH  039%=      5-min Rain = 0
KLO1 190445Z 17013KT 31/15 A2995 RMK A01 T03050148  RH  039%=      5-min Rain = 0
KLO1 190446Z 17012KT 31/15 A2995 RMK A01 T03050148  RH  039%=      5-min Rain = 0
KLO1 190447Z 17012G17KT 30/15 A2995 RMK A01 T03040148  RH  039%=      5-min Rain = 0
KLO1 190448Z 17013KT 30/15 A2995 RMK A01 T03040147  RH  039%=      5-min Rain = 0
KLO1 190449Z 17012KT 30/15 A2995 RMK A01 T03040147  RH  039%=      5-min Rain = 0
KLO1 190450Z 17013KT 30/15 A2995 RMK A01 T03040147  RH  038%=      5-min Rain = 0
KLO1 190451Z 17013KT 30/15 A2995 RMK A01 T03040147  RH  038%=      5-min Rain = 0
KLO1 190452Z 17011KT 30/15 A2995 RMK A01 T03040146  RH  038%=      5-min Rain = 0
KLO1 190453Z 17011KT 30/15 A2995 RMK A01 T03030146  RH  038%=      5-min Rain = 0
KLO1 190454Z 17013KT 30/15 A2995 RMK A01 T03030146  RH  038%=      5-min Rain = 0
KLO1 190455Z 17011KT 30/15 A2995 RMK A01 T03030145  RH  038%=      5-min Rain = 0
KLO1 190456Z 17012KT 30/15 A2995 RMK A01 T03030145  RH  038%=      5-min Rain = 0
KLO1 190457Z 16011KT 30/15 A2995 RMK A01 T03030145  RH  038%=      5-min Rain = 0
KLO1 190458Z 16012KT 30/15 A2995 RMK A01 T03020145  RH  038%=      5-min Rain = 0
KLO1 190459Z 17012KT 30/14 A2995 RMK A01 T03020144  RH  038%=      5-min Rain = 0

Page generated in 0.0859 seconds.